Data for 09/17/2008

Time Sea-Level Adjusted Pressure Absolute Pressure Temperature Relative Humidity Dew Point Precipitation   
(mb) (inHg) (mb) (inHg) (C) (F) (%) (C) (F) (mm) (in)
00:01 1025 30.27 854 25.22 8.4 47.1 58 0.7 33.2 0
00:02 1025 30.27 854 25.22 8.5 47.3 56 0.4 32.7 0
00:03 1025 30.27 854 25.22 9 48.2 52 -0.4 31.2 0
00:04 1025 30.27 854 25.22 9.7 49.4 51 -0 31.9 0
00:05 1025 30.27 854 25.22 10.1 50.2 50 0.2 32.4 0
00:06 1025 30.27 854 25.22 10.1 50.3 51 0.5 32.9 0
00:07 1025 30.27 854 25.22 9.9 49.8 53 0.8 33.5 0
00:08 1025 30.27 854 25.22 9.4 49 55 0.9 33.5 0
00:09 1025 30.27 854 25.22 9.1 48.4 54 0.4 32.8 0
00:10 1025 30.27 854 25.22 9 48.2 57 1 33.7 0
00:11 1025 30.27 854 25.22 8.6 47.5 58 0.7 33.3 0
00:12 1025 30.27 854 25.22 8.1 46.6 59 0.7 33.3 0
00:13 1025 30.27 854 25.22 7.8 46 60 0.5 32.9 0
00:14 1025 30.27 854 25.22 7.7 45.8 60 0.4 32.7 0
00:15 1025 30.27 854 25.22 7.7 45.8 59 0.1 32.1 0
00:16 1025 30.27 854 25.22 8 46.3 57 -0 32 0
00:17 1025 30.27 854 25.22 8.3 46.9 57 0.2 32.4 0
00:18 1025 30.27 854 25.22 8.4 47 56 0.1 32.1 0
00:19 1025 30.27 854 25.22 8.4 47.2 56 0.2 32.4 0
00:20 1025 30.27 854 25.22 8.4 47.1 56 0.2 32.3 0
00:21 1025 30.27 854 25.22 8.2 46.7 58 0.4 32.7 0
00:22 1025 30.27 854 25.22 8 46.4 58 0.2 32.4 0
00:23 1025 30.27 854 25.22 7.9 46.1 57 -0 32 0
00:24 1025 30.27 854 25.22 7.8 46.1 59 0.4 32.8 0
00:25 1025 30.27 854 25.22 7.5 45.5 60 0.3 32.5 0
00:26 1025 30.27 854 25.22 7.3 45.1 61 0.3 32.5 0
00:27 1025 30.27 854 25.22 7.2 44.9 60 -0.1 31.9 0
00:28 1025 30.27 854 25.22 7.4 45.4 58 -0.3 31.5 0
00:29 1025 30.27 854 25.22 7.8 46 56 -0.3 31.5 0
00:30 1025 30.27 854 25.22 8 46.5 57 0.1 32.2 0
00:31 1025 30.27 854 25.22 7.9 46.2 59 0.3 32.6 0
00:32 1025 30.27 854 25.22 7.5 45.5 60 0.3 32.6 0
00:33 1025 30.27 854 25.22 7.3 45.1 62 0.4 32.7 0
00:34 1025 30.27 854 25.22 7.1 44.8 62 0.4 32.8 0
00:35 1025 30.27 854 25.22 6.9 44.5 64 0.6 33.2 0
00:36 1025 30.27 854 25.22 6.6 43.9 65 0.6 33.1 0
00:37 1025 30.27 854 25.22 6.5 43.7 66 0.5 33 0
00:38 1025 30.27 854 25.22 6.4 43.5 66 0.6 33 0
00:39 1025 30.27 854 25.22 6.2 43.2 66 0.4 32.7 0
00:40 1025 30.27 854 25.22 6.3 43.3 65 0.1 32.3 0
00:41 1025 30.27 854 25.22 6.4 43.6 64 0.2 32.3 0
00:42 1025 30.27 854 25.22 6.6 43.9 63 0.2 32.3 0
00:43 1025 30.27 854 25.22 6.7 44.1 63 0.2 32.4 0
00:44 1025 30.27 854 25.22 6.9 44.4 62 0.2 32.3 0
00:45 1025 30.27 854 25.22 7 44.5 63 0.5 32.9 0
00:46 1025 30.27 854 25.22 6.8 44.3 63 0.3 32.6 0
00:47 1025 30.27 854 25.22 6.6 44 63 0.2 32.4 0
00:48 1025 30.27 854 25.22 6.6 43.9 63 0.1 32.2 0
00:49 1025 30.27 854 25.22 6.6 43.9 62 -0.1 31.9 0
00:50 1025 30.27 854 25.22 6.7 44 63 0.1 32.1 0
00:51 1025 30.27 854 25.22 6.6 43.9 63 0.2 32.3 0
00:52 1025 30.27 854 25.22 6.5 43.6 64 0.2 32.3 0
00:53 1025 30.27 854 25.22 6.3 43.4 65 0.2 32.4 0
00:54 1025 30.27 854 25.22 6.3 43.3 65 0.2 32.4 0
00:55 1025 30.27 854 25.22 6.4 43.5 64 0.1 32.2 0
00:56 1025 30.27 854 25.22 6.5 43.7 63 0.1 32.2 0
00:57 1025 30.27 854 25.22 6.7 44 63 0.2 32.3 0
00:58 1025 30.27 854 25.22 6.7 44.1 63 0.2 32.4 0
00:59 1025 30.27 854 25.22 6.7 44.1 63 0.2 32.4 0
01:00 1025 30.27 854 25.22 6.7 44.1 64 0.4 32.8 0
01:01 1025 30.27 854 25.22 6.5 43.7 65 0.4 32.8 0
01:02 1025 30.27 854 25.22 6.4 43.5 65 0.4 32.7 0
01:03 1025 30.27 854 25.22 6.4 43.5 64 0.1 32.2 0
01:04 1025 30.27 854 25.22 6.5 43.7 64 0.3 32.5 0
01:05 1025 30.27 854 25.22 6.4 43.5 65 0.3 32.5 0
01:06 1025 30.27 854 25.22 6.4 43.5 63 -0.1 31.9 0
01:07 1025 30.27 854 25.22 6.5 43.8 63 -0 31.9 0
01:08 1025 30.27 854 25.22 6.7 44 62 -0.1 31.8 0
01:09 1025 30.27 854 25.22 6.9 44.4 61 -0.1 31.9 0
01:10 1025 30.27 854 25.22 7 44.6 61 -0 31.9 0
01:11 1025 30.27 854 25.22 7.1 44.9 60 -0.1 31.8 0
01:12 1025 30.27 854 25.22 7.3 45.1 59 -0.2 31.7 0
01:13 1025 30.27 854 25.22 7.4 45.4 58 -0.2 31.7 0
01:14 1025 30.27 854 25.22 7.5 45.6 58 -0.2 31.6 0
01:15 1025 30.27 854 25.22 7.7 45.8 57 -0.2 31.7 0
01:16 1025 30.27 854 25.22 7.8 46 57 -0.1 31.8 0
01:17 1025 30.27 854 25.22 7.8 46 57 -0.2 31.7 0
01:18 1025 30.27 854 25.22 7.9 46.2 57 -0.1 31.8 0
01:19 1025 30.27 854 25.22 7.9 46.3 57 -0 32 0
01:20 1025 30.27 854 25.22 7.9 46.1 57 -0.1 31.9 0
01:21 1025 30.27 854 25.22 7.8 46.1 57 -0.2 31.6 0
01:22 1025 30.27 854 25.22 7.9 46.1 57 -0.2 31.7 0
01:23 1025 30.27 854 25.22 7.9 46.2 56 -0.3 31.5 0
01:24 1025 30.27 854 25.22 7.9 46.3 56 -0.2 31.6 0
01:25 1025 30.27 854 25.22 8 46.3 56 -0.2 31.7 0
01:26 1025 30.27 854 25.22 7.9 46.3 57 -0.1 31.8 0
01:27 1025 30.27 854 25.22 7.9 46.2 57 -0.1 31.9 0
01:28 1025 30.27 854 25.22 7.8 46.1 57 -0.1 31.9 0
01:29 1025 30.27 854 25.22 7.8 46 57 -0.1 31.8 0
01:30 1025 30.27 854 25.22 7.8 46.1 57 -0.2 31.6 0
01:31 1025 30.27 854 25.22 7.9 46.2 57 -0.1 31.8 0
01:32 1025 30.27 854 25.22 7.9 46.2 57 -0.1 31.9 0
01:33 1025 30.27 854 25.22 8 46.3 57 -0 32 0
01:34 1025 30.27 854 25.22 8 46.3 58 0.1 32.3 0
01:35 1025 30.27 854 25.22 7.9 46.2 58 0.1 32.2 0
01:36 1025 30.27 854 25.22 7.8 46 58 0 32 0
01:37 1025 30.27 854 25.22 7.8 46.1 57 -0 31.9 0
01:38 1025 30.27 854 25.22 7.8 46.1 57 -0.1 31.8 0
01:39 1025 30.27 854 25.22 7.9 46.1 58 0.1 32.1 0
01:40 1025 30.27 854 25.22 7.7 45.9 58 -0 31.9 0
01:41 1025 30.27 854 25.22 7.7 45.8 57 -0.2 31.6 0
01:42 1025 30.27 854 25.22 7.8 46 56 -0.3 31.5 0
01:43 1025 30.27 854 25.22 8 46.3 56 -0.3 31.4 0
01:44 1025 30.27 854 25.22 8.1 46.5 56 -0.2 31.6 0
01:45 1025 30.27 854 25.22 8.1 46.5 55 -0.3 31.4 0
01:46 1025 30.27 854 25.22 8.1 46.7 56 -0.2 31.7 0
01:47 1025 30.27 854 25.22 8.1 46.5 57 0 32 0
01:48 1025 30.27 854 25.22 7.9 46.3 58 0.1 32.3 0
01:49 1025 30.27 854 25.22 7.7 45.9 59 0.1 32.2 0
01:50 1025 30.27 854 25.22 7.5 45.6 60 0.3 32.5 0
01:51 1025 30.27 854 25.22 7.3 45.1 60 0.1 32.3 0
01:52 1025 30.27 854 25.22 7.3 45.1 59 -0.1 31.9 0
01:53 1025 30.27 854 25.22 7.3 45.2 59 -0.2 31.7 0
01:54 1025 30.27 854 25.22 7.4 45.2 58 -0.4 31.2 0
01:55 1025 30.27 854 25.22 7.6 45.6 57 -0.5 31.1 0
01:56 1025 30.27 854 25.22 7.7 45.9 56 -0.4 31.2 0
01:57 1025 30.27 854 25.22 7.8 46 56 -0.5 31.1 0
01:58 1025 30.27 854 25.22 7.9 46.2 55 -0.6 31 0
01:59 1025 30.27 854 25.22 8 46.5 54 -0.7 30.8 0
02:00 1024 30.24 854 25.22 8.2 46.7 54 -0.6 30.9 0
02:01 1024 30.24 854 25.22 8.3 46.9 54 -0.4 31.3 0
02:02 1024 30.24 854 25.22 8.3 46.9 54 -0.5 31.1 0
02:03 1024 30.24 854 25.22 8.2 46.7 54 -0.5 31.1 0
02:04 1024 30.24 854 25.22 8.3 46.9 54 -0.6 30.9 0
02:05 1024 30.24 854 25.22 8.4 47 53 -0.6 30.9 0
02:06 1024 30.24 854 25.22 8.5 47.3 53 -0.5 31 0
02:07 1024 30.24 854 25.22 8.6 47.4 53 -0.4 31.3 0
02:08 1025 30.27 854 25.22 8.5 47.2 54 -0.4 31.3 0
02:09 1024 30.24 854 25.22 8.4 47 54 -0.5 31.1 0
02:10 1024 30.24 854 25.22 8.3 47 54 -0.5 31.1 0
02:11 1024 30.24 854 25.22 8.3 46.9 54 -0.3 31.4 0
02:12 1024 30.24 854 25.22 8.2 46.8 55 -0.3 31.4 0
02:13 1024 30.24 854 25.22 8.1 46.6 54 -0.5 31.1 0
02:14 1024 30.24 854 25.22 8.1 46.5 55 -0.4 31.2 0
02:15 1024 30.24 854 25.22 8 46.5 55 -0.3 31.4 0
02:16 1024 30.24 854 25.22 7.9 46.2 56 -0.3 31.5 0
02:17 1024 30.24 854 25.22 7.8 46 56 -0.4 31.4 0
02:18 1024 30.24 854 25.22 7.7 45.8 56 -0.4 31.2 0
02:19 1024 30.24 854 25.22 7.6 45.8 57 -0.3 31.4 0
02:20 1024 30.24 854 25.22 7.5 45.5 58 -0.3 31.5 0
02:21 1024 30.24 854 25.22 7.3 45.2 58 -0.4 31.3 0
02:22 1024 30.24 854 25.22 7.3 45.1 58 -0.5 31 0
02:23 1024 30.24 854 25.22 7.3 45.2 57 -0.6 31 0
02:24 1024 30.24 854 25.22 7.4 45.3 57 -0.5 31.1 0
02:25 1024 30.24 854 25.22 7.5 45.4 58 -0.3 31.5 0
02:26 1024 30.24 854 25.22 7.3 45.2 58 -0.2 31.6 0
02:27 1024 30.24 854 25.22 7.2 44.9 58 -0.5 31.1 0
02:28 1024 30.24 854 25.22 7.3 45.1 58 -0.5 31 0
02:29 1024 30.24 854 25.22 7.3 45.2 57 -0.6 30.9 0
02:30 1024 30.24 854 25.22 7.4 45.4 57 -0.6 30.9 0
02:31 1025 30.27 854 25.22 7.4 45.3 60 0.1 32.1 0
02:32 1025 30.27 854 25.22 7 44.6 62 0.2 32.4 0
02:33 1024 30.24 854 25.22 6.8 44.2 60 -0.5 31 0
02:34 1024 30.24 854 25.22 6.9 44.4 61 -0.2 31.7 0
02:35 1024 30.24 854 25.22 6.7 44.1 62 -0 32 0
02:36 1024 30.24 854 25.22 6.5 43.7 63 0.1 32.1 0
02:37 1024 30.24 854 25.22 6.2 43.1 64 -0 31.9 0
02:38 1024 30.24 854 25.22 6 42.9 65 -0.1 31.8 0
02:39 1024 30.24 854 25.22 6 42.8 66 0 32.1 0
02:40 1024 30.24 854 25.22 5.9 42.6 65 -0.1 31.8 0
02:41 1024 30.24 854 25.22 5.9 42.5 65 -0.3 31.5 0
02:42 1024 30.24 854 25.22 6 42.8 64 -0.2 31.6 0
02:43 1024 30.24 854 25.22 6.2 43.1 62 -0.6 31 0
02:44 1024 30.24 854 25.22 6.5 43.7 60 -0.7 30.7 0
02:45 1024 30.24 854 25.22 6.9 44.4 59 -0.6 30.9 0
02:46 1024 30.24 854 25.22 7.1 44.9 57 -0.7 30.8 0
02:47 1024 30.24 854 25.22 7.3 45.2 57 -0.7 30.7 0
02:48 1024 30.24 854 25.22 7.5 45.5 56 -0.8 30.6 0
02:49 1024 30.24 854 25.22 7.6 45.7 56 -0.6 30.9 0
02:50 1024 30.24 854 25.22 7.6 45.7 55 -0.8 30.6 0
02:51 1024 30.24 854 25.22 7.8 46 55 -0.7 30.7 0
02:52 1024 30.24 854 25.22 7.7 45.9 55 -0.6 30.8 0
02:53 1024 30.24 854 25.22 7.6 45.6 56 -0.6 31 0
02:54 1024 30.24 854 25.22 7.3 45.1 58 -0.4 31.3 0
02:55 1024 30.24 854 25.22 6.8 44.3 60 -0.4 31.2 0
02:56 1024 30.24 854 25.22 6.7 44 60 -0.5 31.2 0
02:57 1024 30.24 854 25.22 6.5 43.7 61 -0.5 31.1 0
02:58 1024 30.24 854 25.22 6.3 43.3 63 -0.2 31.6 0
02:59 1024 30.24 854 25.22 5.8 42.5 65 -0.3 31.5 0
03:00 1024 30.24 854 25.22 5.5 41.9 66 -0.3 31.5 0
03:01 1024 30.24 854 25.22 5.1 41.2 68 -0.3 31.5 0
03:02 1024 30.24 854 25.22 4.9 40.8 67 -0.7 30.7 0
03:03 1024 30.24 854 25.22 5.2 41.4 65 -0.7 30.7 0
03:04 1024 30.24 854 25.22 5.6 42.1 63 -0.8 30.5 0
03:05 1024 30.24 854 25.22 5.8 42.5 63 -0.6 30.9 0
03:06 1024 30.24 854 25.22 5.9 42.7 62 -0.7 30.7 0
03:07 1024 30.24 854 25.22 6.1 43 62 -0.6 30.8 0
03:08 1024 30.24 854 25.22 6.3 43.4 60 -0.8 30.6 0
03:09 1024 30.24 854 25.22 6.5 43.6 61 -0.5 31 0
03:10 1024 30.24 854 25.22 6.4 43.5 61 -0.7 30.8 0
03:11 1024 30.24 854 25.22 6.4 43.5 60 -0.8 30.6 0
03:12 1024 30.24 854 25.22 6.5 43.7 60 -0.7 30.7 0
03:13 1024 30.24 854 25.22 6.5 43.6 60 -0.7 30.8 0
03:14 1024 30.24 854 25.22 6.4 43.5 60 -0.7 30.7 0
03:15 1024 30.24 854 25.22 6.4 43.4 61 -0.7 30.7 0
03:16 1024 30.24 854 25.22 6.4 43.6 60 -0.7 30.7 0
03:17 1024 30.24 854 25.22 6.4 43.5 62 -0.3 31.4 0
03:18 1024 30.24 854 25.22 6.2 43.1 61 -0.8 30.6 0
03:19 1024 30.24 854 25.22 6.5 43.6 60 -0.8 30.5 0
03:20 1024 30.24 854 25.22 6.7 44 59 -0.7 30.7 0
03:21 1024 30.24 854 25.22 6.7 44.1 59 -0.8 30.6 0
03:22 1024 30.24 854 25.22 6.8 44.2 59 -0.7 30.8 0
03:23 1024 30.24 854 25.22 6.8 44.2 60 -0.5 31.2 0
03:24 1024 30.24 854 25.22 6.9 44.3 57 -1.2 29.9 0
03:25 1024 30.24 854 25.22 7.4 45.4 56 -0.6 30.8 0
03:26 1024 30.24 854 25.22 7.5 45.4 56 -0.7 30.8 0
03:27 1024 30.24 854 25.22 7.5 45.5 57 -0.5 31.1 0
03:28 1024 30.24 854 25.22 7.4 45.4 57 -0.4 31.2 0
03:29 1024 30.24 854 25.22 7.4 45.3 56 -0.8 30.5 0
03:30 1024 30.24 854 25.22 7.7 45.8 56 -0.7 30.8 0
03:31 1024 30.24 854 25.22 7.8 46 56 -0.5 31.1 0
03:32 1024 30.24 854 25.22 7.7 45.9 56 -0.4 31.3 0
03:33 1024 30.24 854 25.22 7.7 45.9 56 -0.5 31.2 0
03:34 1024 30.24 854 25.22 7.7 45.8 57 -0.4 31.3 0
03:35 1024 30.24 854 25.22 7.8 46 54 -0.9 30.3 0
03:36 1024 30.24 854 25.22 8.1 46.5 53 -0.8 30.5 0
03:37 1024 30.24 854 25.22 8.3 46.9 53 -0.8 30.6 0
03:38 1024 30.24 854 25.22 8.4 47 53 -0.7 30.7 0
03:39 1024 30.24 854 25.22 8.5 47.2 52 -0.7 30.7 0
03:40 1024 30.24 854 25.22 8.6 47.5 52 -0.7 30.8 0
03:41 1024 30.24 854 25.22 8.6 47.6 52 -0.5 31.1 0
03:42 1024 30.24 854 25.22 8.5 47.4 53 -0.4 31.3 0
03:43 1024 30.24 853 25.19 8.4 47.1 54 -0.3 31.4 0
03:44 1024 30.24 853 25.19 8.3 46.9 54 -0.4 31.3 0
03:45 1024 30.24 853 25.19 8.2 46.7 54 -0.5 31 0
03:46 1024 30.24 853 25.19 8.2 46.7 54 -0.6 31 0
03:47 1024 30.24 853 25.19 8.1 46.6 54 -0.6 31 0
03:48 1024 30.24 853 25.19 8.1 46.5 55 -0.3 31.4 0
03:49 1024 30.24 853 25.19 7.9 46.2 55 -0.5 31.2 0
03:50 1024 30.24 853 25.19 7.8 46.1 54 -0.8 30.6 0
03:51 1024 30.24 853 25.19 8 46.3 54 -0.7 30.8 0
03:52 1024 30.24 853 25.19 8 46.4 53 -0.9 30.4 0
03:53 1024 30.24 853 25.19 8.2 46.7 52 -1.1 30.1 0
03:54 1024 30.24 854 25.22 8.4 47.1 51 -1 30.1 0
03:55 1024 30.24 854 25.22 8.4 47.2 52 -0.8 30.6 0
03:56 1024 30.24 854 25.22 8.3 46.9 54 -0.5 31 0
03:57 1024 30.24 854 25.22 8 46.4 55 -0.4 31.2 0
03:58 1024 30.24 854 25.22 7.7 45.9 56 -0.5 31.1 0
03:59 1024 30.24 854 25.22 7.5 45.5 56 -0.7 30.7 0
04:00 1024 30.24 854 25.22 7.5 45.5 56 -0.7 30.7 0
04:01 1024 30.24 854 25.22 7.5 45.5 56 -0.7 30.7 0
04:02 1024 30.24 854 25.22 7.4 45.4 57 -0.6 30.9 0
04:03 1024 30.24 854 25.22 7.2 45 59 -0.2 31.7 0
04:04 1024 30.24 854 25.22 6.9 44.5 61 0.1 32.1 0
04:05 1024 30.24 854 25.22 6.5 43.6 66 0.5 32.9 0
04:06 1024 30.24 854 25.22 5.9 42.6 67 0.3 32.5 0
04:07 1024 30.24 854 25.22 5.6 42 68 0.2 32.4 0
04:08 1024 30.24 854 25.22 5.4 41.6 69 0.2 32.4 0
04:09 1024 30.24 854 25.22 5.2 41.3 70 0.2 32.4 0
04:10 1024 30.24 854 25.22 5.1 41.2 69 -0 31.9 0
04:11 1024 30.24 854 25.22 5.3 41.6 68 -0.1 31.8 0
04:12 1024 30.24 854 25.22 5.4 41.8 68 -0.1 31.9 0
04:13 1024 30.24 854 25.22 5.5 41.9 67 -0.2 31.6 0
04:14 1024 30.24 854 25.22 5.6 42.1 66 -0.2 31.7 0
04:15 1024 30.24 854 25.22 5.7 42.3 64 -0.4 31.2 0
04:16 1024 30.24 854 25.22 6 42.8 63 -0.5 31 0
04:17 1024 30.24 854 25.22 6.1 43 62 -0.5 31 0
04:18 1024 30.24 854 25.22 6.3 43.3 62 -0.4 31.3 0
04:19 1024 30.24 854 25.22 6.3 43.3 62 -0.5 31.2 0
04:20 1024 30.24 854 25.22 6.3 43.4 62 -0.3 31.5 0
04:21 1024 30.24 854 25.22 6.3 43.4 62 -0.4 31.2 0
04:22 1024 30.24 854 25.22 6.5 43.7 61 -0.5 31.1 0
04:23 1024 30.24 854 25.22 6.7 44.1 61 -0.2 31.6 0
04:24 1024 30.24 854 25.22 6.4 43.5 63 -0.1 31.8 0
04:25 1024 30.24 854 25.22 5.7 42.3 66 -0.2 31.6 0
04:26 1024 30.24 854 25.22 5.4 41.8 66 -0.4 31.3 0
04:27 1024 30.24 854 25.22 5.2 41.4 67 -0.4 31.2 0
04:28 1024 30.24 854 25.22 5 41 68 -0.4 31.2 0
04:29 1024 30.24 854 25.22 4.9 40.8 68 -0.5 31.2 0
04:30 1024 30.24 854 25.22 4.8 40.7 69 -0.3 31.4 0
04:31 1024 30.24 854 25.22 4.7 40.5 69 -0.4 31.2 0
04:32 1024 30.24 854 25.22 4.7 40.5 69 -0.5 31 0
04:33 1024 30.24 854 25.22 4.9 40.8 68 -0.5 31.1 0
04:34 1024 30.24 854 25.22 4.9 40.9 68 -0.5 31 0
04:35 1024 30.24 854 25.22 4.9 40.8 68 -0.5 31 0
04:36 1024 30.24 854 25.22 4.9 40.9 67 -0.6 30.9 0
04:37 1024 30.24 854 25.22 5 41.1 67 -0.6 30.9 0
04:38 1024 30.24 854 25.22 5.2 41.4 66 -0.6 30.9 0
04:39 1024 30.24 854 25.22 5.4 41.6 66 -0.5 31 0
04:40 1025 30.27 854 25.22 5.4 41.8 66 -0.4 31.3 0
04:41 1025 30.27 854 25.22 5.3 41.5 67 -0.3 31.4 0
04:42 1025 30.27 854 25.22 5.1 41.2 68 -0.2 31.6 0
04:43 1025 30.27 854 25.22 5 41 68 -0.4 31.3 0
04:44 1025 30.27 854 25.22 5.1 41.1 67 -0.5 31 0
04:45 1024 30.24 854 25.22 5.3 41.5 66 -0.6 31 0
04:46 1024 30.24 854 25.22 5.4 41.8 66 -0.5 31.1 0
04:47 1024 30.24 854 25.22 5.4 41.7 66 -0.5 31.1 0
04:48 1024 30.24 854 25.22 5.4 41.7 66 -0.5 31.1 0
04:49 1024 30.24 854 25.22 5.5 41.8 65 -0.6 30.9 0
04:50 1024 30.24 854 25.22 5.6 42 65 -0.6 31 0
04:51 1024 30.24 854 25.22 5.6 42 65 -0.5 31 0
04:52 1024 30.24 854 25.22 5.5 41.9 65 -0.4 31.2 0
04:53 1024 30.24 854 25.22 5.4 41.8 65 -0.5 31 0
04:54 1024 30.24 854 25.22 5.5 41.8 66 -0.5 31.2 0
04:55 1024 30.24 854 25.22 5.5 41.9 65 -0.5 31.1 0
04:56 1024 30.24 854 25.22 5.6 42 65 -0.4 31.3 0
04:57 1024 30.24 854 25.22 5.5 41.9 66 -0.4 31.3 0
04:58 1024 30.24 854 25.22 5.5 41.9 66 -0.3 31.4 0
04:59 1024 30.24 854 25.22 5.4 41.8 67 -0.2 31.6 0
05:00 1024 30.24 854 25.22 5.3 41.6 67 -0.3 31.5 0
05:01 1024 30.24 854 25.22 5.4 41.6 67 -0.2 31.6 0
05:02 1025 30.27 854 25.22 5.4 41.6 68 -0.2 31.7 0
05:03 1024 30.24 854 25.22 5.3 41.6 68 -0.2 31.7 0
05:04 1024 30.24 854 25.22 5.3 41.5 67 -0.2 31.6 0
05:05 1024 30.24 854 25.22 5.3 41.5 68 -0.2 31.7 0
05:06 1024 30.24 854 25.22 5.2 41.4 68 -0.1 31.8 0
05:07 1024 30.24 854 25.22 5.1 41.2 69 -0.1 31.8 0
05:08 1024 30.24 854 25.22 5 41 69 -0.2 31.6 0
05:09 1024 30.24 854 25.22 5 40.9 69 -0.2 31.6 0
05:10 1024 30.24 854 25.22 4.9 40.8 69 -0.2 31.6 0
05:11 1024 30.24 854 25.22 4.8 40.7 70 -0.2 31.6 0
05:12 1024 30.24 854 25.22 4.8 40.6 70 -0.2 31.6 0
05:13 1024 30.24 854 25.22 4.7 40.5 70 -0.2 31.6 0
05:14 1024 30.24 854 25.22 4.7 40.4 70 -0.3 31.5 0
05:15 1024 30.24 854 25.22 4.7 40.4 70 -0.3 31.5 0
05:16 1024 30.24 854 25.22 4.6 40.3 71 -0.2 31.7 0
05:17 1024 30.24 854 25.22 4.5 40.1 72 -0.2 31.7 0
05:18 1024 30.24 854 25.22 4.4 39.9 72 -0.2 31.7 0
05:19 1024 30.24 854 25.22 4.3 39.7 72 -0.3 31.4 0
05:20 1024 30.24 854 25.22 4.2 39.6 72 -0.4 31.4 0
05:21 1024 30.24 854 25.22 4.2 39.6 72 -0.4 31.3 0
05:22 1024 30.24 854 25.22 4.3 39.7 72 -0.3 31.4 0
05:23 1024 30.24 854 25.22 4.3 39.7 72 -0.3 31.5 0
05:24 1024 30.24 854 25.22 4.2 39.6 72 -0.3 31.4 0
05:25 1024 30.24 854 25.22 4.2 39.5 72 -0.3 31.4 0
05:26 1024 30.24 854 25.22 4.3 39.7 71 -0.5 31 0
05:27 1024 30.24 854 25.22 4.5 40.2 69 -0.7 30.7 0
05:28 1024 30.24 854 25.22 4.9 40.9 67 -0.8 30.6 0
05:29 1024 30.24 854 25.22 5.2 41.4 66 -0.7 30.8 0
05:30 1024 30.24 854 25.22 5.4 41.8 65 -0.5 31 0
05:31 1024 30.24 854 25.22 5.5 41.9 66 -0.4 31.3 0
05:32 1024 30.24 854 25.22 5.4 41.7 66 -0.5 31.2 0
05:33 1024 30.24 854 25.22 5.4 41.7 66 -0.4 31.3 0
05:34 1024 30.24 854 25.22 5.3 41.5 67 -0.3 31.4 0
05:35 1024 30.24 854 25.22 5.2 41.3 68 -0.3 31.4 0
05:36 1024 30.24 854 25.22 5 41 69 -0.3 31.5 0
05:37 1024 30.24 854 25.22 4.8 40.6 69 -0.4 31.4 0
05:38 1024 30.24 854 25.22 4.6 40.3 70 -0.3 31.4 0
05:39 1024 30.24 854 25.22 4.5 40.1 70 -0.5 31.1 0
05:40 1024 30.24 854 25.22 4.5 40.1 70 -0.6 30.9 0
05:41 1024 30.24 854 25.22 4.6 40.3 69 -0.6 30.8 0
05:42 1024 30.24 854 25.22 4.9 40.8 68 -0.6 30.9 0
05:43 1024 30.24 854 25.22 5.2 41.4 66 -0.6 30.9 0
05:44 1024 30.24 854 25.22 5.6 42.1 64 -0.6 31 0
05:45 1025 30.27 854 25.22 6 42.8 63 -0.5 31.1 0
05:46 1024 30.24 854 25.22 6.2 43.2 62 -0.6 31 0
05:47 1025 30.27 854 25.22 6.5 43.7 61 -0.5 31.2 0
05:48 1025 30.27 854 25.22 6.7 44.1 60 -0.5 31.1 0
05:49 1025 30.27 854 25.22 6.9 44.5 59 -0.5 31.2 0
05:50 1025 30.27 854 25.22 7.1 44.7 58 -0.6 30.9 0
05:51 1025 30.27 854 25.22 7.2 44.9 59 -0.4 31.3 0
05:52 1025 30.27 854 25.22 7.2 44.9 59 -0.4 31.4 0
05:53 1025 30.27 854 25.22 7.2 44.9 58 -0.5 31.2 0
05:54 1025 30.27 854 25.22 7.2 45 58 -0.5 31.1 0
05:55 1025 30.27 854 25.22 7.2 45 58 -0.5 31.1 0
05:56 1025 30.27 854 25.22 7.2 44.9 58 -0.5 31.2 0
05:57 1025 30.27 854 25.22 7.2 44.9 58 -0.4 31.3 0
05:58 1025 30.27 854 25.22 7.1 44.7 59 -0.3 31.4 0
05:59 1025 30.27 854 25.22 7 44.5 60 -0.3 31.5 0
06:00 1025 30.27 854 25.22 6.8 44.2 61 -0.1 31.8 0
06:01 1025 30.27 854 25.22 6.5 43.7 62 -0.3 31.5 0
06:02 1025 30.27 854 25.22 6.4 43.4 62 -0.3 31.4 0
06:03 1025 30.27 854 25.22 6.3 43.3 63 -0.3 31.4 0
06:04 1025 30.27 854 25.22 6.1 43 63 -0.3 31.4 0
06:05 1025 30.27 854 25.22 6 42.8 64 -0.4 31.3 0
06:06 1025 30.27 854 25.22 5.8 42.5 64 -0.4 31.3 0
06:07 1024 30.24 854 25.22 5.8 42.4 64 -0.4 31.2 0
06:08 1024 30.24 854 25.22 5.7 42.3 65 -0.4 31.3 0
06:09 1024 30.24 854 25.22 5.7 42.2 65 -0.5 31.1 0
06:10 1024 30.24 854 25.22 5.7 42.2 65 -0.4 31.2 0
06:11 1024 30.24 854 25.22 5.6 42.1 65 -0.5 31.1 0
06:12 1025 30.27 854 25.22 5.6 42.1 65 -0.4 31.3 0
06:13 1025 30.27 854 25.22 5.4 41.7 67 -0.2 31.7 0
06:14 1025 30.27 854 25.22 4.8 40.6 69 -0.3 31.4 0
06:15 1025 30.27 854 25.22 4.6 40.3 69 -0.6 31 0
06:16 1025 30.27 854 25.22 4.6 40.2 70 -0.4 31.4 0
06:17 1025 30.27 854 25.22 4.3 39.8 72 -0.3 31.4 0
06:18 1025 30.27 854 25.22 4.3 39.7 71 -0.5 31.1 0
06:19 1025 30.27 854 25.22 4.4 39.9 71 -0.5 31.1 0
06:20 1025 30.27 854 25.22 4.4 39.9 70 -0.6 31 0
06:21 1025 30.27 854 25.22 4.4 40 70 -0.6 30.9 0
06:22 1025 30.27 854 25.22 4.5 40.1 71 -0.4 31.3 0
06:23 1025 30.27 854 25.22 4.4 40 70 -0.5 31.1 0
06:24 1025 30.27 854 25.22 4.5 40.1 70 -0.5 31.1 0
06:25 1025 30.27 854 25.22 4.6 40.3 69 -0.5 31.1 0
06:26 1025 30.27 854 25.22 4.6 40.3 69 -0.5 31.1 0
06:27 1025 30.27 854 25.22 4.6 40.4 69 -0.5 31.1 0
06:28 1025 30.27 854 25.22 4.5 40.2 70 -0.4 31.3 0
06:29 1025 30.27 854 25.22 4.4 39.9 70 -0.6 30.9 0
06:30 1025 30.27 854 25.22 4.4 40 70 -0.5 31.1 0
06:31 1025 30.27 854 25.22 4.3 39.7 71 -0.4 31.2 0
06:32 1025 30.27 854 25.22 4.1 39.4 72 -0.5 31.2 0
06:33 1025 30.27 854 25.22 4.2 39.5 71 -0.7 30.8 0
06:34 1025 30.27 854 25.22 4.5 40 69 -0.6 30.9 0
06:35 1025 30.27 854 25.22 4.7 40.4 69 -0.5 31 0
06:36 1025 30.27 854 25.22 4.8 40.6 68 -0.5 31.1 0
06:37 1025 30.27 854 25.22 4.9 40.7 68 -0.6 30.9 0
06:38 1025 30.27 854 25.22 5 41 67 -0.7 30.8 0
06:39 1025 30.27 854 25.22 5.3 41.5 65 -0.7 30.7 0
06:40 1025 30.27 854 25.22 5.5 41.9 65 -0.6 30.9 0
06:41 1025 30.27 854 25.22 5.6 42.1 64 -0.7 30.8 0
06:42 1025 30.27 854 25.22 5.8 42.4 63 -0.7 30.7 0
06:43 1025 30.27 854 25.22 5.9 42.6 62 -0.8 30.5 0
06:44 1025 30.27 854 25.22 6.1 42.9 61 -0.8 30.5 0
06:45 1025 30.27 854 25.22 6.1 43 61 -0.8 30.5 0
06:46 1025 30.27 854 25.22 6.2 43.2 60 -0.8 30.5 0
06:47 1025 30.27 854 25.22 6.4 43.5 59 -1 30.2 0
06:48 1025 30.27 854 25.22 6.7 44 58 -0.9 30.3 0
06:49 1025 30.27 854 25.22 6.8 44.3 58 -0.8 30.6 0
06:50 1025 30.27 854 25.22 6.7 44.1 59 -0.7 30.7 0
06:51 1025 30.27 854 25.22 6.7 44 59 -0.6 30.8 0
06:52 1025 30.27 854 25.22 6.5 43.6 60 -0.6 30.9 0
06:53 1025 30.27 854 25.22 6.2 43.2 61 -0.6 30.9 0
06:54 1025 30.27 854 25.22 5.9 42.7 63 -0.6 30.9 0
06:55 1025 30.27 854 25.22 5.7 42.3 63 -0.7 30.7 0
06:56 1025 30.27 854 25.22 5.7 42.2 63 -0.7 30.7 0
06:57 1025 30.27 854 25.22 5.7 42.2 63 -0.8 30.5 0
06:58 1025 30.27 854 25.22 5.6 42.2 63 -0.8 30.6 0
06:59 1025 30.27 854 25.22 5.7 42.2 63 -0.8 30.6 0
07:00 1025 30.27 854 25.22 5.7 42.3 63 -0.8 30.5 0
07:01 1025 30.27 854 25.22 5.8 42.4 63 -0.7 30.7 0
07:02 1025 30.27 854 25.22 5.7 42.3 63 -0.7 30.7 0
07:03 1025 30.27 854 25.22 5.7 42.2 64 -0.6 30.9 0
07:04 1025 30.27 854 25.22 5.6 42 64 -0.6 30.8 0
07:05 1025 30.27 854 25.22 5.4 41.8 65 -0.7 30.7 0
07:06 1025 30.27 854 25.22 5.5 41.8 64 -0.9 30.5 0
07:07 1025 30.27 854 25.22 5.6 42.1 63 -0.9 30.4 0
07:08 1025 30.27 854 25.22 5.7 42.2 63 -0.8 30.5 0
07:09 1025 30.27 854 25.22 5.7 42.2 63 -0.7 30.7 0
07:10 1025 30.27 854 25.22 5.6 42 64 -0.8 30.6 0
07:11 1025 30.27 854 25.22 5.6 42 64 -0.8 30.6 0
07:12 1025 30.27 854 25.22 5.6 42 64 -0.8 30.6 0
07:13 1025 30.27 854 25.22 5.6 42 64 -0.7 30.7 0
07:14 1025 30.27 854 25.22 5.5 41.9 64 -0.7 30.7 0
07:15 1025 30.27 854 25.22 5.6 42 63 -0.8 30.5 0
07:16 1025 30.27 854 25.22 5.6 42.1 64 -0.6 31 0
07:17 1025 30.27 854 25.22 5.4 41.7 65 -0.6 30.9 0
07:18 1025 30.27 854 25.22 5.2 41.3 66 -0.7 30.8 0
07:19 1025 30.27 854 25.22 5 41.1 66 -0.7 30.8 0
07:20 1025 30.27 854 25.22 5 41.1 67 -0.6 30.8 0
07:21 1025 30.27 854 25.22 5 41.1 67 -0.7 30.8 0
07:22 1025 30.27 854 25.22 5 41 68 -0.5 31.1 0
07:23 1025 30.27 854 25.22 4.8 40.6 68 -0.5 31.1 0
07:24 1025 30.27 854 25.22 4.7 40.4 68 -0.6 30.8 0
07:25 1025 30.27 854 25.22 4.8 40.6 68 -0.7 30.8 0
07:26 1025 30.27 854 25.22 4.9 40.7 68 -0.6 30.9 0
07:27 1025 30.27 854 25.22 4.8 40.6 68 -0.5 31 0
07:28 1025 30.27 854 25.22 4.7 40.5 69 -0.6 31 0
07:29 1025 30.27 854 25.22 4.7 40.4 68 -0.7 30.8 0
07:30 1025 30.27 854 25.22 4.8 40.6 68 -0.6 30.9 0
07:31 1025 30.27 854 25.22 4.9 40.8 68 -0.5 31.1 0
07:32 1025 30.27 854 25.22 4.9 40.8 68 -0.5 31.1 0
07:33 1025 30.27 854 25.22 5 40.9 68 -0.4 31.2 0
07:34 1025 30.27 854 25.22 5 41 68 -0.4 31.3 0
07:35 1025 30.27 854 25.22 5.2 41.4 66 -0.6 31 0
07:36 1025 30.27 854 25.22 5.6 42 66 -0.4 31.3 0
07:37 1025 30.27 854 25.22 5.7 42.3 66 -0.2 31.6 0
07:38 1025 30.27 854 25.22 5.7 42.3 66 -0 31.9 0
07:39 1025 30.27 854 25.22 5.4 41.8 69 0.3 32.5 0
07:40 1025 30.27 854 25.22 5 40.9 71 0.1 32.2 0
07:41 1025 30.27 854 25.22 4.7 40.5 72 0 32.1 0
07:42 1025 30.27 854 25.22 4.6 40.3 72 -0 32 0
07:43 1025 30.27 854 25.22 4.6 40.3 70 -0.4 31.3 0
07:44 1025 30.27 854 25.22 5 41.1 68 -0.3 31.4 0
07:45 1025 30.27 854 25.22 5.4 41.7 68 -0.1 31.8 0
07:46 1025 30.27 854 25.22 5.5 41.9 66 -0.3 31.5 0
07:47 1025 30.27 854 25.22 5.6 42.1 68 0.1 32.2 0
07:48 1025 30.27 854 25.22 5.6 42 68 0.2 32.4 0
07:49 1025 30.27 854 25.22 5.5 42 68 0.1 32.3 0
07:50 1025 30.27 854 25.22 5.7 42.2 67 0 32.1 0
07:51 1025 30.27 854 25.22 5.9 42.6 67 0.3 32.6 0
07:52 1025 30.27 854 25.22 5.9 42.6 67 0.2 32.4 0
07:53 1025 30.27 854 25.22 6 42.7 67 0.3 32.6 0
07:54 1025 30.27 854 25.22 6.1 42.9 67 0.4 32.7 0
07:55 1025 30.27 854 25.22 6.2 43.2 68 0.8 33.4 0
07:56 1025 30.27 854 25.22 6.2 43.2 69 1 33.8 0
07:57 1025 30.27 854 25.22 6.3 43.3 65 0.2 32.3 0
07:58 1025 30.27 854 25.22 6.7 44 64 0.3 32.6 0
07:59 1025 30.27 854 25.22 7 44.5 64 0.6 33.1 0
08:00 1025 30.27 854 25.22 7.1 44.8 66 1.1 34 0
08:01 1025 30.27 854 25.22 7.1 44.9 66 1.2 34.1 0
08:02 1025 30.27 854 25.22 7.2 45 63 0.6 33.1 0
08:03 1025 30.27 854 25.22 7.5 45.4 62 0.6 33.1 0
08:04 1025 30.27 854 25.22 7.7 45.9 62 1 33.8 0
08:05 1025 30.27 854 25.22 7.8 46.1 63 1.2 34.2 0
08:06 1025 30.27 854 25.22 7.8 46.1 64 1.5 34.8 0
08:07 1025 30.27 854 25.22 7.8 46.1 65 1.7 35.1 0
08:08 1025 30.27 854 25.22 7.9 46.2 65 1.7 35 0
08:09 1025 30.27 854 25.22 7.9 46.3 66 1.9 35.5 0
08:10 1025 30.27 854 25.22 8 46.4 66 2.1 35.8 0
08:11 1025 30.27 854 25.22 8.1 46.6 64 1.8 35.2 0
08:12 1025 30.27 854 25.22 8.3 46.9 65 2.1 35.9 0
08:13 1025 30.27 854 25.22 8.3 47 64 1.9 35.5 0
08:14 1025 30.27 854 25.22 8.4 47.2 65 2.2 35.9 0
08:15 1025 30.27 854 25.22 8.5 47.3 63 1.8 35.2 0
08:16 1025 30.27 854 25.22 8.7 47.6 61 1.7 35 0
08:17 1025 30.27 854 25.22 8.8 47.9 64 2.4 36.3 0
08:18 1025 30.27 854 25.22 9 48.1 63 2.2 36 0
08:19 1025 30.27 854 25.22 9.1 48.3 60 1.7 35.1 0
08:20 1025 30.27 854 25.22 9.2 48.6 60 1.8 35.2 0
08:21 1025 30.27 854 25.22 9.3 48.7 61 2.3 36.1 0
08:22 1025 30.27 854 25.22 9.3 48.8 61 2.3 36.2 0
08:23 1025 30.27 854 25.22 9.4 48.9 61 2.4 36.2 0
08:24 1025 30.27 854 25.22 9.5 49.1 61 2.3 36.1 0
08:25 1025 30.27 854 25.22 9.6 49.3 59 2.1 35.7 0
08:26 1025 30.27 854 25.22 9.8 49.7 60 2.5 36.4 0
08:27 1025 30.27 854 25.22 9.9 49.9 56 1.7 35 0
08:28 1025 30.27 854 25.22 10.1 50.2 58 2.2 36 0
08:29 1025 30.27 854 25.22 10.3 50.5 56 1.9 35.5 0
08:30 1025 30.27 854 25.22 10.5 50.8 55 1.9 35.4 0
08:31 1025 30.27 854 25.22 10.6 51.1 55 1.9 35.4 0
08:32 1025 30.27 854 25.22 10.8 51.4 56 2.3 36.2 0
08:33 1025 30.27 854 25.22 10.9 51.5 53 1.7 35.1 0
08:34 1025 30.27 854 25.22 11 51.7 54 2.2 35.9 0
08:35 1025 30.27 854 25.22 11.1 51.9 56 2.6 36.7 0
08:36 1025 30.27 854 25.22 11.1 52 54 2.2 35.9 0
08:37 1025 30.27 854 25.22 11.3 52.3 54 2.2 36 0
08:38 1025 30.27 854 25.22 11.4 52.4 57 3.2 37.7 0
08:39 1025 30.27 854 25.22 11.5 52.6 57 3.2 37.8 0
08:40 1025 30.27 854 25.22 11.6 52.9 57 3.5 38.3 0
08:41 1025 30.27 854 25.22 11.8 53.2 57 3.7 38.6 0
08:42 1025 30.27 854 25.22 11.9 53.5 56 3.4 38.1 0
08:43 1025 30.27 854 25.22 12.1 53.7 53 2.8 37 0
08:44 1025 30.27 854 25.22 12.1 53.8 52 2.8 37 0
08:45 1025 30.27 854 25.22 12.2 53.9 53 3 37.4 0
08:46 1025 30.27 854 25.22 12.3 54.1 55 3.7 38.6 0
08:47 1025 30.27 854 25.22 12.5 54.4 53 3.1 37.5 0
08:48 1025 30.27 854 25.22 12.6 54.7 52 3 37.4 0
08:49 1025 30.27 854 25.22 12.8 55 53 3.6 38.5 0
08:50 1025 30.27 854 25.22 12.9 55.2 51 3.1 37.6 0
08:51 1025 30.27 854 25.22 13 55.5 51 3.2 37.7 0
08:52 1025 30.27 854 25.22 13.2 55.7 48 2.5 36.5 0
08:53 1025 30.27 854 25.22 13.2 55.8 48 2.5 36.5 0
08:54 1025 30.27 854 25.22 13.3 56 45 1.8 35.2 0
08:55 1025 30.27 854 25.22 13.4 56.1 50 3.2 37.7 0
08:56 1025 30.27 854 25.22 13.4 56.1 50 3.3 37.9 0
08:57 1025 30.27 854 25.22 13.6 56.4 49 3.2 37.7 0
08:58 1025 30.27 854 25.22 13.6 56.5 50 3.4 38.2 0
08:59 1025 30.27 854 25.22 13.8 56.8 44 1.9 35.5 0
09:00 1025 30.27 854 25.22 13.8 56.8 44 1.8 35.3 0
09:01 1025 30.27 854 25.22 13.8 56.9 45 2.2 36 0
09:02 1025 30.27 854 25.22 13.9 57.1 44 2.1 35.8 0
09:03 1025 30.27 854 25.22 14 57.2 44 1.9 35.4 0
09:04 1025 30.27 854 25.22 14.1 57.3 43 1.7 35.1 0
09:05 1025 30.27 854 25.22 14.1 57.4 44 2.2 35.9 0
09:06 1025 30.27 854 25.22 14.2 57.5 44 2.2 36 0
09:07 1025 30.27 854 25.22 14.3 57.7 44 2.1 35.9 0
09:08 1025 30.27 854 25.22 14.4 57.8 42 1.8 35.2 0
09:09 1025 30.27 854 25.22 14.5 58.1 42 1.8 35.2 0
09:10 1025 30.27 854 25.22 14.7 58.4 41 1.6 34.8 0
09:11 1025 30.27 854 25.22 14.8 58.7 39 1.2 34.1 0
09:12 1025 30.27 854 25.22 14.8 58.7 41 1.9 35.4 0
09:13 1025 30.27 854 25.22 14.9 58.8 39 1.2 34.1 0
09:14 1025 30.27 854 25.22 15 59.1 43 2.6 36.6 0
09:15 1025 30.27 854 25.22 15.2 59.3 40 1.9 35.4 0
09:16 1025 30.27 854 25.22 15.2 59.3 41 2.2 35.9 0
09:17 1025 30.27 854 25.22 15.2 59.3 42 2.4 36.3 0
09:18 1025 30.27 854 25.22 15.2 59.4 38 1.2 34.2 0
09:19 1025 30.27 854 25.22 15.3 59.5 36 0.4 32.8 0
09:20 1025 30.27 854 25.22 15.4 59.8 38 1.3 34.4 0
09:21 1025 30.27 854 25.22 15.7 60.2 35 0.4 32.8 0
09:22 1025 30.27 854 25.22 15.8 60.4 35 0.6 33 0
09:23 1025 30.27 854 25.22 16 60.7 35 0.5 32.8 0
09:24 1025 30.27 854 25.22 16.1 60.9 35 0.6 33.1 0
09:25 1025 30.27 854 25.22 16.2 61.1 33 0.2 32.4 0
09:26 1025 30.27 854 25.22 16.2 61.2 34 0.4 32.7 0
09:27 1025 30.27 854 25.22 16.3 61.4 33 0.1 32.2 0
09:28 1025 30.27 854 25.22 16.5 61.7 31 -0.4 31.3 0
09:29 1025 30.27 854 25.22 16.5 61.8 32 -0.3 31.5 0
09:30 1025 30.27 854 25.22 16.7 62.1 32 -0.1 31.9 0
09:31 1025 30.27 854 25.22 16.7 62.1 33 0.4 32.8 0
09:32 1025 30.27 854 25.22 16.6 62 34 0.7 33.2 0
09:33 1025 30.27 854 25.22 16.6 61.9 36 1.7 35.1 0
09:34 1025 30.27 854 25.22 16.6 61.8 33 0.3 32.6 0
09:35 1025 30.27 854 25.22 16.7 62 33 0.6 33 0
09:36 1025 30.27 854 25.22 16.8 62.2 33 0.5 33 0
09:37 1025 30.27 854 25.22 16.9 62.5 35 1.3 34.4 0
09:38 1025 30.27 854 25.22 17.1 62.8 35 1.6 34.8 0
09:39 1025 30.27 854 25.22 17.3 63.1 33 0.8 33.5 0
09:40 1025 30.27 854 25.22 17.4 63.3 36 2.2 36 0
09:41 1025 30.27 854 25.22 17.5 63.4 33 1.3 34.4 0
09:42 1025 30.27 854 25.22 17.3 63.2 36 2.2 36 0
09:43 1025 30.27 854 25.22 17.3 63.1 36 2.2 36 0
09:44 1025 30.27 854 25.22 17.2 62.9 34 1.2 34.2 0
09:45 1025 30.27 854 25.22 17 62.6 34 0.9 33.7 0
09:46 1025 30.27 854 25.22 16.9 62.4 34 1.2 34.1 0
09:47 1025 30.27 854 25.22 16.9 62.4 34 0.9 33.6 0
09:48 1025 30.27 854 25.22 17 62.6 37 2.3 36.2 0
09:49 1025 30.27 854 25.22 17.1 62.7 32 0.4 32.7 0
09:50 1025 30.27 854 25.22 17.1 62.7 32 0.6 33 0
09:51 1025 30.27 854 25.22 17.1 62.7 37 2.3 36.1 0
09:52 1025 30.27 854 25.22 17 62.7 32 0.3 32.5 0
09:53 1025 30.27 854 25.22 17 62.5 33 0.6 33 0
09:54 1025 30.27 854 25.22 16.9 62.4 35 1.3 34.3 0
09:55 1025 30.27 854 25.22 16.8 62.3 33 0.7 33.3 0
09:56 1025 30.27 854 25.22 16.8 62.3 36 1.6 34.9 0
09:57 1025 30.27 854 25.22 16.9 62.3 36 1.8 35.3 0
09:58 1025 30.27 854 25.22 16.9 62.5 40 3.4 38 0
09:59 1025 30.27 854 25.22 16.9 62.4 36 2 35.7 0
10:00 1025 30.27 854 25.22 16.9 62.4 37 2.4 36.3 0
10:01 1025 30.27 854 25.22 17.1 62.7 39 3 37.4 0
10:02 1025 30.27 854 25.22 17 62.7 33 0.7 33.3 0
10:03 1025 30.27 854 25.22 17 62.5 35 1.5 34.7 0
10:04 1025 30.27 854 25.22 17.1 62.7 39 3.2 37.8 0
10:05 1025 30.27 854 25.22 17.1 62.7 35 1.8 35.3 0
10:06 1025 30.27 854 25.22 17.1 62.7 33 1 33.8 0
10:07 1025 30.27 854 25.22 17 62.5 37 2.2 36 0
10:08 1025 30.27 854 25.22 16.9 62.4 42 4 39.1 0
10:09 1025 30.27 854 25.22 16.9 62.4 40 3.5 38.3 0
10:10 1025 30.27 854 25.22 16.9 62.5 35 1.4 34.6 0
10:11 1025 30.27 854 25.22 16.9 62.3 37 2.3 36.1 0
10:12 1025 30.27 854 25.22 16.8 62.3 41 3.6 38.5 0
10:13 1025 30.27 854 25.22 16.8 62.3 43 4.3 39.7 0
10:14 1025 30.27 854 25.22 16.8 62.2 43 4.1 39.4 0
10:15 1025 30.27 854 25.22 16.8 62.2 39 2.9 37.3 0
10:16 1025 30.27 854 25.22 16.7 62.1 37 2.2 35.9 0
10:17 1025 30.27 854 25.22 16.7 62.1 46 5.1 41.2 0
10:18 1025 30.27 854 25.22 16.8 62.3 38 2.7 36.8 0
10:19 1025 30.27 854 25.22 16.9 62.5 38 2.6 36.6 0
10:20 1025 30.27 854 25.22 17 62.7 42 4.1 39.4 0
10:21 1025 30.27 854 25.22 17.1 62.8 39 3 37.5 0
10:22 1025 30.27 854 25.22 17.1 62.9 40 3.7 38.7 0
10:23 1025 30.27 854 25.22 17.1 62.8 40 3.4 38.2 0
10:24 1025 30.27 854 25.22 17.1 62.7 39 3.1 37.6 0
10:25 1025 30.27 854 25.22 17.2 62.9 41 4 39.1 0
10:26 1025 30.27 854 25.22 17.3 63.1 38 3 37.4 0
10:27 1025 30.27 854 25.22 17.4 63.4 38 3 37.4 0
10:28 1025 30.27 854 25.22 17.6 63.6 33 1.4 34.6 0
10:29 1025 30.27 854 25.22 17.5 63.6 35 1.9 35.5 0
10:30 1025 30.27 854 25.22 17.5 63.5 34 1.5 34.7 0
10:31 1025 30.27 854 25.22 17.4 63.3 33 1.3 34.3 0
10:32 1025 30.27 854 25.22 17.4 63.3 33 1.1 33.9 0
10:33 1025 30.27 854 25.22 17.4 63.3 39 3.4 38.1 0
10:34 1025 30.27 854 25.22 17.4 63.4 32 0.8 33.5 0
10:35 1025 30.27 854 25.22 17.6 63.6 33 1.2 34.2 0
10:36 1025 30.27 854 25.22 17.7 63.9 34 1.9 35.4 0
10:37 1025 30.27 854 25.22 17.9 64.1 33 1.3 34.3 0
10:38 1025 30.27 854 25.22 18 64.3 33 1.4 34.6 0
10:39 1025 30.27 854 25.22 18.1 64.5 38 3.7 38.7 0
10:40 1025 30.27 854 25.22 18.2 64.8 34 2.2 36 0
10:41 1025 30.27 854 25.22 18.3 65 33 2 35.6 0
10:42 1025 30.27 854 25.22 18.3 65 35 2.8 37 0
10:43 1025 30.27 854 25.22 18.3 65 33 1.9 35.5 0
10:44 1025 30.27 854 25.22 18.3 64.9 32 1.6 34.8 0
10:45 1025 30.27 854 25.22 18.1 64.6 32 1.3 34.3 0
10:46 1025 30.27 854 25.22 17.9 64.3 32 0.9 33.7 0
10:47 1025 30.27 854 25.22 17.8 64.1 33 1.4 34.6 0
10:48 1025 30.27 854 25.22 17.9 64.2 34 2.1 35.7 0
10:49 1025 30.27 854 25.22 17.9 64.3 33 1.6 34.9 0
10:50 1025 30.27 854 25.22 18 64.4 31 0.8 33.4 0
10:51 1025 30.27 854 25.22 18 64.3 33 1.5 34.7 0
10:52 1025 30.27 854 25.22 17.9 64.3 34 1.9 35.5 0
10:53 1025 30.27 854 25.22 18 64.4 34 1.9 35.4 0
10:54 1025 30.27 854 25.22 18.1 64.5 35 2.6 36.6 0
10:55 1025 30.27 854 25.22 18.1 64.6 31 0.9 33.7 0
10:56 1025 30.27 854 25.22 18.2 64.7 35 2.7 36.8 0
10:57 1025 30.27 854 25.22 18.4 65 38 3.8 38.9 0
10:58 1025 30.27 854 25.22 18.5 65.2 32 1.7 35.1 0
10:59 1025 30.27 854 25.22 18.4 65.2 30 0.8 33.5 0
11:00 1025 30.27 854 25.22 18.4 65.1 39 4.2 39.6 0
11:01 1025 30.27 854 25.22 18.5 65.2 31 1.4 34.5 0
11:02 1025 30.27 854 25.22 18.5 65.3 34 2.4 36.3 0
11:03 1025 30.27 854 25.22 18.5 65.3 32 1.7 35.1 0
11:04 1025 30.27 854 25.22 18.4 65.1 31 1 33.8 0
11:05 1025 30.27 854 25.22 18.3 65 32 1.4 34.6 0
11:06 1025 30.27 854 25.22 18.4 65.1 36 3.3 38 0
11:07 1025 30.27 854 25.22 18.5 65.3 32 1.8 35.2 0
11:08 1025 30.27 854 25.22 18.5 65.3 34 2.5 36.5 0
11:09 1025 30.27 854 25.22 18.4 65.1 38 3.9 39 0
11:10 1025 30.27 854 25.22 18.4 65 38 3.7 38.7 0
11:11 1025 30.27 854 25.22 18.5 65.3 32 1.6 34.8 0
11:12 1025 30.27 854 25.22 18.6 65.5 32 1.8 35.3 0
11:13 1025 30.27 854 25.22 18.6 65.5 37 3.8 38.8 0
11:14 1025 30.27 854 25.22 18.6 65.5 31 1.1 34 0
11:15 1025 30.27 854 25.22 18.6 65.4 36 3.2 37.7 0
11:16 1025 30.27 854 25.22 18.5 65.2 35 2.9 37.2 0
11:17 1025 30.27 854 25.22 18.5 65.2 35 3 37.5 0
11:18 1025 30.27 854 25.22 18.5 65.3 34 2.3 36.2 0
11:19 1025 30.27 854 25.22 18.5 65.2 32 1.6 34.9 0
11:20 1025 30.27 854 25.22 18.4 65.2 30 0.5 32.9 0
11:21 1025 30.27 854 25.22 18.4 65.1 31 1.3 34.3 0
11:22 1025 30.27 854 25.22 18.5 65.4 33 2 35.5 0
11:23 1025 30.27 854 25.22 18.6 65.5 35 3.2 37.7 0
11:24 1025 30.27 854 25.22 18.8 65.8 34 2.5 36.5 0
11:25 1025 30.27 854 25.22 18.7 65.7 33 2.4 36.3 0
11:26 1025 30.27 854 25.22 18.7 65.6 32 1.7 35.1 0
11:27 1025 30.27 854 25.22 18.7 65.6 32 1.9 35.5 0
11:28 1025 30.27 854 25.22 18.7 65.6 33 2 35.6 0
11:29 1025 30.27 854 25.22 18.6 65.4 31 1.5 34.6 0
11:30 1025 30.27 854 25.22 18.6 65.4 32 1.6 35 0
11:31 1025 30.27 854 25.22 18.7 65.6 29 0.4 32.6 0
11:32 1025 30.27 854 25.22 18.8 65.9 31 1.5 34.6 0
11:33 1025 30.27 854 25.22 18.8 65.9 33 2.3 36.2 0
11:34 1025 30.27 854 25.22 18.8 65.8 34 2.9 37.2 0
11:35 1025 30.27 854 25.22 18.8 65.8 28 0.2 32.3 0
11:36 1025 30.27 854 25.22 18.8 65.9 28 -0 31.9 0
11:37 1025 30.27 854 25.22 18.8 65.8 30 0.9 33.6 0
11:38 1025 30.27 854 25.22 18.8 65.8 35 3.3 37.9 0
11:39 1025 30.27 854 25.22 18.8 65.9 29 0.8 33.4 0
11:40 1025 30.27 854 25.22 18.7 65.7 31 1.6 34.8 0
11:41 1025 30.27 854 25.22 18.7 65.7 30 1.1 34 0
11:42 1025 30.27 854 25.22 18.8 65.8 32 1.9 35.5 0
11:43 1025 30.27 854 25.22 18.8 65.9 28 -0.1 31.9 0
11:44 1025 30.27 854 25.22 18.9 66 30 1.3 34.3 0
11:45 1025 30.27 854 25.22 18.8 65.8 31 1.4 34.6 0
11:46 1025 30.27 854 25.22 18.8 65.8 29 0.6 33.1 0
11:47 1025 30.27 854 25.22 18.9 65.9 32 1.8 35.2 0
11:48 1025 30.27 854 25.22 18.9 66.1 35 3.3 37.9 0
11:49 1025 30.27 854 25.22 19 66.1 31 1.5 34.8 0
11:50 1025 30.27 854 25.22 19 66.2 36 3.7 38.6 0
11:51 1025 30.27 854 25.22 19 66.1 28 0.3 32.6 0
11:52 1025 30.27 854 25.22 18.9 66 33 2.5 36.4 0
11:53 1025 30.27 854 25.22 18.9 66 31 1.7 35 0
11:54 1025 30.27 854 25.22 19 66.1 32 1.8 35.3 0
11:55 1025 30.27 854 25.22 19.1 66.4 34 2.8 37.1 0
11:56 1025 30.27 854 25.22 19.3 66.7 30 1.6 34.9 0
11:57 1025 30.27 854 25.22 19.3 66.7 33 2.8 37 0
11:58 1025 30.27 854 25.22 19.3 66.7 27 -0.1 31.8 0
11:59 1025 30.27 854 25.22 19.2 66.6 30 1.4 34.6 0
12:00 1025 30.27 854 25.22 19.2 66.6 36 3.8 38.8 0
12:01 1025 30.27 854 25.22 19.3 66.8 29 1 33.9 0
12:02 1025 30.27 854 25.22 19.4 66.9 28 0.8 33.4 0
12:03 1025 30.27 854 25.22 19.4 67 29 1.1 34.1 0
12:04 1025 30.27 854 25.22 19.4 66.9 29 0.9 33.6 0
12:05 1025 30.27 854 25.22 19.4 66.9 32 2.6 36.6 0
12:06 1025 30.27 854 25.22 19.5 67.1 27 0.4 32.6 0
12:07 1025 30.27 854 25.22 19.6 67.4 27 0.3 32.6 0
12:08 1025 30.27 854 25.22 19.6 67.3 25 -0.6 30.8 0
12:09 1025 30.27 854 25.22 19.6 67.3 25 -0.7 30.8 0
12:10 1025 30.27 854 25.22 19.5 67.1 26 -0.3 31.4 0
12:11 1025 30.27 854 25.22 19.5 67.1 29 1.2 34.1 0
12:12 1025 30.27 854 25.22 19.6 67.2 24 -1.2 29.8 0
12:13 1025 30.27 854 25.22 19.5 67.1 28 0.4 32.8 0
12:14 1025 30.27 854 25.22 19.5 67.1 29 1.2 34.2 0
12:15 1025 30.27 854 25.22 19.6 67.2 27 0.3 32.6 0
12:16 1025 30.27 854 25.22 19.7 67.4 28 0.8 33.4 0
12:17 1025 30.27 854 25.22 19.7 67.5 29 1.2 34.2 0
12:18 1024 30.24 854 25.22 19.8 67.6 30 1.9 35.5 0
12:19 1024 30.24 854 25.22 19.9 67.9 27 0.7 33.3 0
12:20 1024 30.24 854 25.22 20 68.1 26 -0.1 31.8 0
12:21 1024 30.24 854 25.22 20.2 68.3 26 0.3 32.5 0
12:22 1024 30.24 854 25.22 20.2 68.4 25 -0.4 31.3 0
12:23 1024 30.24 854 25.22 20.3 68.6 25 -0.2 31.6 0
12:24 1024 30.24 854 25.22 20.4 68.8 26 0.4 32.7 0
12:25 1024 30.24 854 25.22 20.4 68.7 27 0.9 33.6 0
12:26 1024 30.24 854 25.22 20.3 68.5 24 -0.5 31.1 0
12:27 1024 30.24 854 25.22 20.2 68.4 27 0.8 33.4 0
12:28 1024 30.24 854 25.22 20.3 68.5 28 1.6 34.8 0
12:29 1024 30.24 854 25.22 20.4 68.7 28 1.6 34.9 0
12:30 1024 30.24 853 25.19 20.4 68.8 26 0.3 32.6 0
12:31 1024 30.24 853 25.19 20.4 68.7 26 0.6 33 0
12:32 1024 30.24 853 25.19 20.3 68.6 26 0.6 33.1 0
12:33 1024 30.24 853 25.19 20.3 68.6 26 0.3 32.5 0
12:34 1024 30.24 853 25.19 20.4 68.8 28 1.6 34.8 0
12:35 1024 30.24 853 25.19 20.4 68.8 32 3.1 37.6 0
12:36 1024 30.24 853 25.19 20.6 69 32 3.3 37.9 0
12:37 1024 30.24 853 25.19 20.6 69.1 28 1.6 34.9 0
12:38 1024 30.24 853 25.19 20.6 69 26 0.6 33.1 0
12:39 1024 30.24 853 25.19 20.6 69 30 2.7 36.8 0
12:40 1024 30.24 853 25.19 20.5 68.9 30 2.4 36.2 0
12:41 1024 30.24 853 25.19 20.4 68.8 27 0.8 33.4 0
12:42 1024 30.24 853 25.19 20.5 68.9 26 0.8 33.4 0
12:43 1024 30.24 853 25.19 20.6 69 34 4.3 39.7 0
12:44 1024 30.24 853 25.19 20.8 69.4 26 1 33.7 0
12:45 1024 30.24 853 25.19 20.9 69.7 31 3.2 37.8 0
12:46 1024 30.24 853 25.19 21 69.8 30 3 37.5 0
12:47 1024 30.24 853 25.19 21 69.8 29 2.4 36.4 0
12:48 1024 30.24 853 25.19 21.1 69.9 27 1.3 34.4 0
12:49 1024 30.24 853 25.19 21.1 70 30 3.2 37.8 0
12:50 1024 30.24 853 25.19 21.1 70 26 1.1 33.9 0
12:51 1024 30.24 853 25.19 21 69.8 29 2.4 36.2 0
12:52 1024 30.24 853 25.19 20.9 69.6 27 1.1 34 0
12:53 1024 30.24 853 25.19 21 69.7 31 3.5 38.3 0
12:54 1024 30.24 853 25.19 21.1 70 30 3 37.3 0
12:55 1024 30.24 853 25.19 21.3 70.4 24 0.3 32.5 0
12:56 1024 30.24 853 25.19 21.4 70.5 28 2.1 35.8 0
12:57 1024 30.24 853 25.19 21.4 70.5 26 1.3 34.4 0
12:58 1024 30.24 853 25.19 21.4 70.5 28 2.5 36.5 0
12:59 1024 30.24 853 25.19 21.5 70.6 27 2 35.6 0
13:00 1024 30.24 853 25.19 21.5 70.6 30 3.2 37.8 0
13:01 1024 30.24 853 25.19 21.4 70.5 26 1.2 34.2 0
13:02 1024 30.24 853 25.19 21.4 70.5 24 0.3 32.6 0
13:03 1024 30.24 853 25.19 21.4 70.5 25 0.9 33.6 0
13:04 1024 30.24 853 25.19 21.5 70.6 23 -0.2 31.7 0
13:05 1024 30.24 853 25.19 21.5 70.7 26 1.2 34.2 0
13:06 1024 30.24 853 25.19 21.6 70.8 24 0.5 33 0
13:07 1024 30.24 853 25.19 21.5 70.6 26 1.4 34.5 0
13:08 1024 30.24 853 25.19 21.5 70.8 25 1 33.8 0
13:09 1024 30.24 853 25.19 21.6 70.9 29 3.1 37.6 0
13:10 1024 30.24 853 25.19 21.8 71.2 25 1 33.8 0
13:11 1024 30.24 853 25.19 21.7 71.1 27 2.3 36.2 0
13:12 1024 30.24 853 25.19 21.8 71.2 26 1.8 35.2 0
13:13 1024 30.24 853 25.19 21.9 71.3 28 2.8 37 0
13:14 1024 30.24 853 25.19 22 71.6 25 1.5 34.6 0
13:15 1024 30.24 853 25.19 22 71.7 28 3 37.5 0
13:16 1024 30.24 853 25.19 22.1 71.8 23 0.5 32.8 0
13:17 1024 30.24 853 25.19 22.1 71.7 24 1 33.7 0
13:18 1024 30.24 853 25.19 22 71.7 26 2.1 35.8 0
13:19 1024 30.24 853 25.19 22.1 71.7 25 1.4 34.4 0
13:20 1024 30.24 853 25.19 22.2 71.9 25 1.3 34.4 0
13:21 1024 30.24 853 25.19 22.3 72.1 26 2 35.5 0
13:22 1024 30.24 853 25.19 22.4 72.2 24 1.1 34 0
13:23 1024 30.24 853 25.19 22.4 72.3 28 3.2 37.8 0
13:24 1024 30.24 853 25.19 22.5 72.4 26 2.2 35.9 0
13:25 1024 30.24 853 25.19 22.4 72.3 26 2.1 35.7 0
13:26 1024 30.24 853 25.19 22.2 72 23 0.5 33 0
13:27 1024 30.24 853 25.19 22 71.7 23 0 32.1 0
13:28 1023 30.21 853 25.19 22 71.6 24 0.5 32.8 0
13:29 1024 30.24 853 25.19 22 71.6 23 0.2 32.4 0
13:30 1023 30.21 853 25.19 22 71.6 24 0.5 32.9 0
13:31 1023 30.21 853 25.19 22.1 71.7 27 2.3 36.1 0
13:32 1023 30.21 853 25.19 22.2 72 22 -0.5 31.2 0
13:33 1023 30.21 853 25.19 22.2 72 22 -0.1 31.9 0
13:34 1023 30.21 853 25.19 22.2 72 22 -0.3 31.4 0
13:35 1023 30.21 853 25.19 22.3 72.1 23 0.7 33.2 0
13:36 1023 30.21 853 25.19 22.4 72.4 24 1.1 33.9 0
13:37 1023 30.21 853 25.19 22.5 72.5 23 0.8 33.4 0
13:38 1023 30.21 853 25.19 22.5 72.5 23 0.5 32.8 0
13:39 1023 30.21 853 25.19 22.6 72.6 23 0.7 33.2 0
13:40 1023 30.21 853 25.19 22.6 72.7 26 2.1 35.8 0
13:41 1023 30.21 853 25.19 22.7 72.9 21 -0.5 31.1 0
13:42 1023 30.21 853 25.19 22.6 72.7 22 -0.3 31.5 0
13:43 1023 30.21 853 25.19 22.5 72.5 21 -0.7 30.7 0
13:44 1023 30.21 853 25.19 22.6 72.6 26 2.4 36.3 0
13:45 1023 30.21 853 25.19 22.7 72.8 23 0.5 33 0
13:46 1023 30.21 853 25.19 22.7 72.9 21 -0.3 31.5 0
13:47 1023 30.21 853 25.19 22.8 73 21 -0.4 31.2 0
13:48 1023 30.21 853 25.19 22.9 73.1 20 -1.3 29.7 0
13:49 1023 30.21 853 25.19 22.8 73 22 -0.2 31.7 0
13:50 1023 30.21 853 25.19 22.8 73 19 -1.7 29 0
13:51 1023 30.21 853 25.19 22.6 72.7 25 1.9 35.5 0
13:52 1023 30.21 852 25.16 22.6 72.7 22 0.3 32.5 0
13:53 1023 30.21 852 25.16 22.7 72.8 23 0.6 33 0
13:54 1023 30.21 852 25.16 22.9 73.2 25 2 35.6 0
13:55 1023 30.21 852 25.16 23 73.3 28 3.8 38.8 0
13:56 1023 30.21 852 25.16 23.1 73.5 22 0.3 32.5 0
13:57 1023 30.21 852 25.16 23 73.4 21 -0.2 31.6 0
13:58 1023 30.21 852 25.16 22.9 73.2 23 1.1 34 0
13:59 1023 30.21 852 25.16 22.8 73 25 2.1 35.7 0
14:00 1023 30.21 852 25.16 22.7 72.9 22 0.1 32.3 0
14:01 1023 30.21 852 25.16 22.8 73 23 0.7 33.3 0
14:02 1023 30.21 852 25.16 22.8 73 25 2 35.5 0
14:03 1023 30.21 852 25.16 22.7 72.9 22 0.1 32.2 0
14:04 1023 30.21 852 25.16 22.7 72.8 22 0.1 32.1 0
14:05 1023 30.21 852 25.16 22.7 72.8 22 -0 31.9 0
14:06 1023 30.21 852 25.16 22.8 73 23 0.6 33.1 0
14:07 1023 30.21 852 25.16 22.9 73.3 21 -0.2 31.7 0
14:08 1023 30.21 852 25.16 23.1 73.6 21 -0 32 0
14:09 1023 30.21 852 25.16 23.1 73.7 21 -0.3 31.4 0
14:10 1023 30.21 852 25.16 23.3 74 20 -0.7 30.7 0
14:11 1023 30.21 852 25.16 23.3 73.9 22 0.8 33.4 0
14:12 1023 30.21 852 25.16 23.4 74 21 -0.3 31.5 0
14:13 1023 30.21 852 25.16 23.4 74.1 22 0.8 33.4 0
14:14 1023 30.21 852 25.16 23.5 74.2 21 0.3 32.5 0
14:15 1023 30.21 852 25.16 23.5 74.3 21 0.2 32.4 0
14:16 1023 30.21 852 25.16 23.6 74.4 24 2 35.6 0
14:17 1023 30.21 852 25.16 23.6 74.4 22 0.6 33.1 0
14:18 1023 30.21 852 25.16 23.6 74.4 23 1.2 34.1 0
14:19 1023 30.21 852 25.16 23.7 74.6 24 2.2 36 0
14:20 1023 30.21 852 25.16 23.9 74.9 24 2.4 36.3 0
14:21 1023 30.21 852 25.16 24 75.2 19 -0.6 31 0
14:22 1023 30.21 852 25.16 23.9 75.1 19 -0.7 30.7 0
14:23 1023 30.21 852 25.16 24 75.2 21 0.7 33.2 0
14:24 1023 30.21 852 25.16 24.3 75.7 27 4.2 39.6 0
14:25 1023 30.21 852 25.16 24.5 76.2 22 1.9 35.4 0
14:26 1023 30.21 852 25.16 24.7 76.4 20 0.4 32.7 0
14:27 1023 30.21 852 25.16 24.8 76.6 18 -0.6 31 0
14:28 1023 30.21 852 25.16 24.7 76.4 19 0 32.1 0
14:29 1023 30.21 852 25.16 24.6 76.4 23 2.2 35.9 0
14:30 1023 30.21 852 25.16 24.5 76.2 19 -0.1 31.9 0
14:31 1023 30.21 852 25.16 24.4 76 22 1.4 34.5 0
14:32 1023 30.21 852 25.16 24.3 75.7 21 0.5 32.9 0
14:33 1023 30.21 852 25.16 24.2 75.6 19 -0.4 31.3 0
14:34 1023 30.21 852 25.16 24.2 75.6 20 0.3 32.5 0
14:35 1023 30.21 852 25.16 24.3 75.7 19 -0.4 31.2 0
14:36 1023 30.21 852 25.16 24.4 75.8 20 0.4 32.7 0
14:37 1023 30.21 852 25.16 24.4 76 22 1.5 34.6 0
14:38 1023 30.21 852 25.16 24.4 76 20 0.1 32.2 0
14:39 1023 30.21 852 25.16 24.5 76.1 22 1.7 35.1 0
14:40 1023 30.21 852 25.16 24.8 76.6 20 0.8 33.4 0
14:41 1023 30.21 852 25.16 25 77 17 -1.8 28.8 0
14:42 1023 30.21 852 25.16 25.2 77.3 24 3.3 37.9 0
14:43 1023 30.21 852 25.16 25.4 77.7 25 4.2 39.5 0
14:44 1023 30.21 852 25.16 25.3 77.6 26 4.9 40.8 0
14:45 1023 30.21 852 25.16 25.1 77.2 23 2.5 36.4 0
14:46 1023 30.21 852 25.16 24.9 76.8 28 5.6 42.1 0
14:47 1023 30.21 852 25.16 24.7 76.4 25 3.4 38 0
14:48 1023 30.21 852 25.16 24.4 76 20 0.1 32.2 0
14:49 1023 30.21 852 25.16 24.3 75.7 19 -0.4 31.3 0
14:50 1023 30.21 852 25.16 24.2 75.5 23 1.9 35.5 0
14:51 1022 30.18 852 25.16 24.2 75.6 20 -0.2 31.7 0
14:52 1023 30.21 852 25.16 24.2 75.6 19 -0.8 30.6 0
14:53 1023 30.21 852 25.16 24.4 75.8 19 -0.8 30.5 0
14:54 1022 30.18 852 25.16 24.5 76 19 -0.3 31.4 0
14:55 1022 30.18 852 25.16 24.3 75.8 20 0.1 32.3 0
14:56 1022 30.18 852 25.16 24.4 75.9 21 0.9 33.6 0
14:57 1022 30.18 852 25.16 24.5 76 20 0.1 32.2 0
14:58 1022 30.18 852 25.16 24.4 76 20 0.6 33 0
14:59 1022 30.18 852 25.16 24.5 76.1 23 2.3 36.1 0
15:00 1022 30.18 852 25.16 24.6 76.3 23 2.6 36.8 0
15:01 1022 30.18 852 25.16 24.8 76.7 22 2 35.6 0
15:02 1022 30.18 852 25.16 25 76.9 21 1.5 34.6 0
15:03 1022 30.18 852 25.16 24.9 76.8 21 1.2 34.1 0
15:04 1022 30.18 852 25.16 24.8 76.7 18 -1.2 29.8 0
15:05 1022 30.18 852 25.16 24.6 76.4 22 1.8 35.3 0
15:06 1022 30.18 852 25.16 24.6 76.3 25 3.3 38 0
15:07 1022 30.18 852 25.16 24.6 76.2 18 -0.8 30.6 0
15:08 1022 30.18 852 25.16 24.5 76.1 17 -2 28.4 0
15:09 1022 30.18 852 25.16 24.5 76.2 18 -1.5 29.4 0
15:10 1022 30.18 852 25.16 24.7 76.4 20 0.1 32.2 0
15:11 1022 30.18 852 25.16 24.8 76.6 26 4.3 39.8 0
15:12 1022 30.18 851 25.13 24.9 76.9 17 -1.2 29.8 0
15:13 1022 30.18 851 25.13 25 77 19 0.2 32.4 0
15:14 1022 30.18 851 25.13 25 77 17 -1.4 29.5 0
15:15 1022 30.18 851 25.13 25 77.1 22 2.3 36.1 0
15:16 1022 30.18 851 25.13 25.1 77.2 22 1.9 35.5 0
15:17 1022 30.18 851 25.13 25.1 77.2 19 0 32 0
15:18 1022 30.18 851 25.13 25 76.9 18 -0.4 31.3 0
15:19 1022 30.18 851 25.13 24.7 76.5 19 -0.3 31.4 0
15:20 1022 30.18 851 25.13 24.7 76.4 19 -0 32 0
15:21 1022 30.18 851 25.13 24.7 76.4 22 1.8 35.2 0
15:22 1022 30.18 851 25.13 24.9 76.8 25 3.6 38.5 0
15:23 1022 30.18 851 25.13 25.1 77.2 21 1.4 34.5 0
15:24 1022 30.18 851 25.13 25.3 77.5 16 -1.8 28.8 0
15:25 1022 30.18 851 25.13 25.4 77.6 18 -0.6 30.9 0
15:26 1022 30.18 851 25.13 25.4 77.7 20 1.2 34.2 0
15:27 1022 30.18 851 25.13 25.4 77.6 21 1.4 34.5 0
15:28 1022 30.18 851 25.13 25.2 77.4 18 -0.8 30.5 0
15:29 1022 30.18 851 25.13 25.1 77.1 17 -1.7 29 0
15:30 1022 30.18 851 25.13 25.1 77.1 21 1.3 34.3 0
15:31 1022 30.18 851 25.13 25.2 77.4 20 0.8 33.5 0
15:32 1022 30.18 851 25.13 25.2 77.4 18 -0.8 30.5 0
15:33 1022 30.18 851 25.13 25 77.1 22 1.9 35.5 0
15:34 1022 30.18 851 25.13 25 77 21 1.4 34.5 0
15:35 1022 30.18 851 25.13 25 77 19 0.2 32.4 0
15:36 1022 30.18 851 25.13 25 77 21 1.1 34 0
15:37 1022 30.18 851 25.13 24.9 76.9 18 -1.1 30 0
15:38 1022 30.18 851 25.13 24.8 76.7 18 -1.2 29.8 0
15:39 1022 30.18 851 25.13 24.8 76.6 21 1.5 34.7 0
15:40 1022 30.18 851 25.13 24.7 76.4 16 -2.4 27.7 0
15:41 1022 30.18 851 25.13 24.7 76.4 18 -0.7 30.8 0
15:42 1022 30.18 851 25.13 24.7 76.5 23 2.2 35.9 0
15:43 1022 30.18 851 25.13 24.8 76.6 20 0.7 33.2 0
15:44 1022 30.18 851 25.13 24.8 76.6 20 0.3 32.5 0
15:45 1022 30.18 851 25.13 24.7 76.5 20 0.2 32.3 0
15:46 1022 30.18 851 25.13 24.7 76.4 21 1 33.8 0
15:47 1022 30.18 851 25.13 24.8 76.6 21 1 33.9 0
15:48 1022 30.18 851 25.13 24.8 76.7 23 2.8 37 0
15:49 1022 30.18 851 25.13 24.9 76.8 25 3.9 38.9 0
15:50 1022 30.18 851 25.13 25 77 22 1.9 35.4 0
15:51 1022 30.18 851 25.13 25 76.9 20 1 33.7 0
15:52 1022 30.18 851 25.13 25 76.9 19 0.1 32.1 0
15:53 1022 30.18 851 25.13 24.9 76.7 16 -2.2 28 0
15:54 1022 30.18 851 25.13 24.8 76.7 18 -1.2 29.8 0
15:55 1022 30.18 851 25.13 24.9 76.8 24 3.4 38.1 0
15:56 1022 30.18 851 25.13 25 77 20 0.6 33 0
15:57 1022 30.18 851 25.13 25.1 77.2 19 0.3 32.6 0
15:58 1022 30.18 851 25.13 25.1 77.2 22 1.9 35.4 0
15:59 1022 30.18 851 25.13 25.1 77.2 19 0.4 32.8 0
16:00 1022 30.18 851 25.13 25.2 77.3 22 2 35.6 0
16:01 1022 30.18 851 25.13 25.3 77.5 16 -2.1 28.3 0
16:02 1022 30.18 851 25.13 25.4 77.6 20 0.9 33.6 0
16:03 1022 30.18 851 25.13 25.4 77.7 17 -0.9 30.3 0
16:04 1022 30.18 851 25.13 25.5 77.9 21 1.8 35.2 0
16:05 1022 30.18 851 25.13 25.5 77.8 18 -0.2 31.6 0
16:06 1022 30.18 851 25.13 25.3 77.6 20 0.8 33.4 0
16:07 1022 30.18 851 25.13 25.3 77.5 17 -1.5 29.3 0
16:08 1022 30.18 851 25.13 25.3 77.6 18 -0.2 31.7 0
16:09 1022 30.18 851 25.13 25.2 77.4 21 1.3 34.4 0
16:10 1022 30.18 851 25.13 25.2 77.4 26 4.9 40.8 0
16:11 1022 30.18 851 25.13 25.2 77.4 21 1.9 35.5 0
16:12 1022 30.18 851 25.13 25.1 77.2 21 1.5 34.6 0
16:13 1022 30.18 851 25.13 24.9 76.9 24 3.1 37.5 0
16:14 1022 30.18 851 25.13 24.9 76.8 21 1.4 34.5 0
16:15 1022 30.18 851 25.13 24.9 76.8 20 0.4 32.7 0
16:16 1022 30.18 851 25.13 24.9 76.8 22 1.8 35.3 0
16:17 1022 30.18 851 25.13 25 76.9 23 2.6 36.6 0
16:18 1022 30.18 851 25.13 25.1 77.2 22 2.1 35.8 0
16:19 1022 30.18 851 25.13 25 77.1 24 3.1 37.6 0
16:20 1022 30.18 851 25.13 24.9 76.9 22 1.8 35.3 0
16:21 1022 30.18 851 25.13 24.9 76.8 21 1.5 34.8 0
16:22 1022 30.18 851 25.13 24.9 76.9 24 3.2 37.8 0
16:23 1022 30.18 851 25.13 24.9 76.8 18 -1 30.2 0
16:24 1022 30.18 851 25.13 24.7 76.5 23 2.5 36.4 0
16:25 1022 30.18 851 25.13 24.7 76.4 19 -0.4 31.3 0
16:26 1022 30.18 851 25.13 24.6 76.2 22 1.8 35.2 0
16:27 1022 30.18 851 25.13 24.6 76.3 17 -1.5 29.4 0
16:28 1022 30.18 851 25.13 24.6 76.3 26 4.1 39.5 0
16:29 1022 30.18 851 25.13 24.6 76.3 21 1.3 34.3 0
16:30 1022 30.18 851 25.13 24.7 76.4 19 -0.5 31.1 0
16:31 1022 30.18 851 25.13 24.7 76.4 22 1.5 34.7 0
16:32 1022 30.18 851 25.13 24.7 76.5 23 2.6 36.6 0
16:33 1022 30.18 851 25.13 24.8 76.6 20 0.4 32.8 0
16:34 1022 30.18 851 25.13 24.8 76.6 21 1.2 34.1 0
16:35 1022 30.18 851 25.13 24.8 76.6 21 1.5 34.7 0
16:36 1022 30.18 851 25.13 24.9 76.8 21 1 33.8 0
16:37 1022 30.18 851 25.13 24.9 76.9 23 2.6 36.6 0
16:38 1022 30.18 851 25.13 25.1 77.2 24 3.6 38.5 0
16:39 1022 30.18 851 25.13 25.2 77.3 23 2.9 37.2 0
16:40 1022 30.18 851 25.13 25.1 77.2 17 -1.4 29.4 0
16:41 1022 30.18 851 25.13 25.1 77.1 19 -0.1 31.8 0
16:42 1022 30.18 851 25.13 25 77 18 -0.9 30.3 0
16:43 1022 30.18 851 25.13 24.9 76.9 22 2.2 35.9 0
16:44 1022 30.18 851 25.13 25 77 19 -0.3 31.5 0
16:45 1022 30.18 851 25.13 25.1 77.1 16 -2.5 27.5 0
16:46 1022 30.18 851 25.13 25.2 77.3 21 1.5 34.6 0
16:47 1022 30.18 851 25.13 25.2 77.4 18 -0.8 30.6 0
16:48 1022 30.18 851 25.13 25.2 77.4 19 -0.1 31.8 0
16:49 1022 30.18 851 25.13 25.3 77.5 17 -1 30.2 0
16:50 1022 30.18 851 25.13 25.3 77.5 20 0.9 33.7 0
16:51 1022 30.18 851 25.13 25.3 77.6 17 -1.3 29.7 0
16:52 1022 30.18 851 25.13 25.3 77.6 15 -2.6 27.3 0
16:53 1022 30.18 851 25.13 25.3 77.6 15 -2.7 27.2 0
16:54 1022 30.18 851 25.13 25.5 77.8 15 -3.1 26.5 0
16:55 1022 30.18 851 25.13 25.6 78.1 22 2.8 37.1 0
16:56 1022 30.18 851 25.13 25.7 78.2 20 1.3 34.3 0
16:57 1022 30.18 851 25.13 25.7 78.3 15 -2.9 26.7 0
16:58 1022 30.18 851 25.13 25.9 78.6 17 -1.2 29.9 0
16:59 1022 30.18 851 25.13 26 78.9 18 0.1 32.2 0
17:00 1022 30.18 851 25.13 26.1 79 22 2.7 36.9 0
17:01 1022 30.18 851 25.13 26 78.8 16 -1.7 29 0
17:02 1022 30.18 851 25.13 25.8 78.4 18 -0.4 31.4 0
17:03 1022 30.18 851 25.13 25.7 78.3 22 2.6 36.6 0
17:04 1022 30.18 851 25.13 25.7 78.2 18 0 32 0
17:05 1022 30.18 851 25.13 25.7 78.2 20 1.1 33.9 0
17:06 1022 30.18 851 25.13 25.7 78.2 24 3.9 39 0
17:07 1022 30.18 851 25.13 25.6 78 20 1.1 33.9 0
17:08 1022 30.18 851 25.13 25.4 77.7 21 1.8 35.3 0
17:09 1022 30.18 851 25.13 25.3 77.6 18 -0.6 30.9 0
17:10 1022 30.18 851 25.13 25.3 77.5 21 1.8 35.2 0
17:11 1022 30.18 851 25.13 25.3 77.5 22 2.3 36.1 0
17:12 1022 30.18 851 25.13 25.2 77.4 21 1.7 35.1 0
17:13 1022 30.18 851 25.13 25.2 77.4 21 1.5 34.7 0
17:14 1022 30.18 851 25.13 25.2 77.4 25 4.1 39.4 0
17:15 1022 30.18 851 25.13 25.2 77.4 23 2.6 36.8 0
17:16 1022 30.18 851 25.13 25.3 77.5 18 -0.3 31.4 0
17:17 1022 30.18 851 25.13 25.2 77.3 23 2.8 37.1 0
17:18 1022 30.18 851 25.13 25.1 77.2 21 1.5 34.6 0
17:19 1022 30.18 851 25.13 25 77 21 1.1 34 0
17:20 1022 30.18 851 25.13 24.9 76.8 22 2 35.6 0
17:21 1022 30.18 851 25.13 24.9 76.7 19 0.1 32.2 0
17:22 1022 30.18 851 25.13 24.8 76.7 24 3.1 37.6 0
17:23 1022 30.18 851 25.13 24.9 76.8 23 2.5 36.5 0
17:24 1022 30.18 851 25.13 24.9 76.8 18 -0.8 30.6 0
17:25 1022 30.18 851 25.13 25 77 20 1 33.9 0
17:26 1022 30.18 851 25.13 25.1 77.2 26 4.4 39.9 0
17:27 1022 30.18 851 25.13 25.1 77.1 22 2 35.6 0
17:28 1022 30.18 851 25.13 25 77.1 20 0.7 33.2 0
17:29 1022 30.18 851 25.13 25 77.1 19 0.3 32.6 0
17:30 1022 30.18 851 25.13 25 77.1 23 2.5 36.4 0
17:31 1022 30.18 851 25.13 25 77 26 4.3 39.7 0
17:32 1022 30.18 851 25.13 25 77 25 4 39.3 0
17:33 1022 30.18 851 25.13 25.1 77.1 22 1.8 35.2 0
17:34 1022 30.18 851 25.13 25.1 77.1 23 2.7 36.8 0
17:35 1022 30.18 851 25.13 25.1 77.1 24 3.4 38.1 0
17:36 1022 30.18 851 25.13 24.9 76.8 27 5 40.9 0
17:37 1022 30.18 851 25.13 24.8 76.6 25 3.8 38.8 0
17:38 1022 30.18 851 25.13 24.7 76.5 31 6.5 43.7 0
17:39 1022 30.18 851 25.13 24.7 76.4 26 4.2 39.5 0
17:40 1022 30.18 851 25.13 24.6 76.2 28 5.2 41.3 0
17:41 1022 30.18 851 25.13 24.5 76.1 31 6.3 43.4 0
17:42 1022 30.18 851 25.13 24.4 75.9 32 6.9 44.4 0
17:43 1022 30.18 851 25.13 24.3 75.7 30 5.8 42.5 0
17:44 1022 30.18 851 25.13 24.2 75.5 30 5.7 42.2 0
17:45 1022 30.18 851 25.13 24.1 75.4 31 6.2 43.2 0
17:46 1022 30.18 851 25.13 24.1 75.4 33 7 44.5 0
17:47 1022 30.18 851 25.13 24.1 75.3 32 6.4 43.5 0
17:48 1022 30.18 851 25.13 24.1 75.3 29 5.3 41.5 0
17:49 1022 30.18 851 25.13 24 75.3 28 4.5 40.1 0
17:50 1022 30.18 851 25.13 24 75.2 29 5.1 41.1 0
17:51 1021 30.15 851 25.13 24 75.2 32 6.3 43.4 0
17:52 1021 30.15 851 25.13 23.9 75 29 5 41 0
17:53 1022 30.18 851 25.13 23.9 75 30 5.3 41.5 0
17:54 1021 30.15 851 25.13 23.8 74.9 30 5.4 41.6 0
17:55 1021 30.15 851 25.13 23.8 74.9 30 5.4 41.7 0
17:56 1021 30.15 851 25.13 23.8 74.8 29 5.1 41.1 0
17:57 1021 30.15 851 25.13 23.7 74.7 29 4.9 40.8 0
17:58 1021 30.15 851 25.13 23.7 74.6 28 4.3 39.7 0
17:59 1021 30.15 851 25.13 23.7 74.6 24 2.3 36.2 0
18:00 1021 30.15 851 25.13 23.7 74.7 25 3 37.4 0
18:01 1021 30.15 851 25.13 23.7 74.7 28 4.4 39.9 0
18:02 1021 30.15 851 25.13 23.7 74.6 29 5 41.1 0
18:03 1021 30.15 851 25.13 23.6 74.5 33 6.6 43.9 0
18:04 1021 30.15 851 25.13 23.5 74.2 32 6.1 43.1 0
18:05 1021 30.15 851 25.13 23.3 74 35 7 44.7 0
18:06 1021 30.15 851 25.13 23.1 73.6 36 7.2 45 0
18:07 1021 30.15 851 25.13 23 73.4 35 7.1 44.8 0
18:08 1021 30.15 851 25.13 22.8 73 38 7.9 46.2 0
18:09 1021 30.15 851 25.13 22.6 72.7 35 6.7 44 0
18:10 1021 30.15 851 25.13 22.5 72.5 36 6.9 44.3 0
18:11 1021 30.15 851 25.13 22.4 72.3 37 7.2 44.9 0
18:12 1021 30.15 851 25.13 22.3 72.2 36 6.8 44.2 0
18:13 1021 30.15 851 25.13 22.2 72 36 6.8 44.3 0
18:14 1021 30.15 851 25.13 22.2 72 35 6.2 43.1 0
18:15 1021 30.15 851 25.13 22.2 71.9 36 6.6 43.9 0
18:16 1021 30.15 851 25.13 22.1 71.8 37 6.9 44.4 0
18:17 1021 30.15 851 25.13 22.1 71.8 37 6.9 44.5 0
18:18 1021 30.15 851 25.13 22.1 71.7 35 6.1 43 0
18:19 1021 30.15 851 25.13 22 71.6 36 6.5 43.7 0
18:20 1021 30.15 851 25.13 21.9 71.4 37 6.7 44 0
18:21 1021 30.15 851 25.13 21.8 71.3 36 6.2 43.2 0
18:22 1021 30.15 851 25.13 21.8 71.2 38 7.2 44.9 0
18:23 1021 30.15 851 25.13 21.8 71.2 39 7.4 45.3 0
18:24 1021 30.15 851 25.13 21.7 71.1 39 7.1 44.9 0
18:25 1021 30.15 851 25.13 21.6 71 38 6.9 44.4 0
18:26 1021 30.15 851 25.13 21.6 70.8 38 6.8 44.3 0
18:27 1021 30.15 851 25.13 21.5 70.6 38 6.8 44.2 0
18:28 1021 30.15 851 25.13 21.4 70.5 38 6.6 43.9 0
18:29 1021 30.15 851 25.13 21.3 70.4 38 6.8 44.2 0
18:30 1021 30.15 851 25.13 21.2 70.2 37 6.1 43 0
18:31 1021 30.15 851 25.13 21.2 70.1 38 6.3 43.3 0
18:32 1021 30.15 851 25.13 21.1 69.9 37 6.2 43.1 0
18:33 1021 30.15 851 25.13 21 69.7 37 6 42.8 0
18:34 1021 30.15 851 25.13 20.9 69.6 38 6.2 43.2 0
18:35 1021 30.15 851 25.13 20.7 69.3 39 6.3 43.3 0
18:36 1021 30.15 851 25.13 20.6 69.1 39 6.4 43.4 0
18:37 1021 30.15 851 25.13 20.5 68.8 39 6.3 43.3 0
18:38 1021 30.15 851 25.13 20.5 68.8 40 6.4 43.6 0
18:39 1021 30.15 851 25.13 20.3 68.6 38 5.6 42 0
18:40 1021 30.15 851 25.13 20.3 68.5 38 5.7 42.2 0
18:41 1021 30.15 851 25.13 20.2 68.3 38 5.4 41.7 0
18:42 1021 30.15 851 25.13 20.2 68.3 37 5.4 41.6 0
18:43 1021 30.15 851 25.13 20.1 68.1 40 6 42.9 0
18:44 1021 30.15 851 25.13 19.9 67.8 39 5.7 42.3 0
18:45 1021 30.15 851 25.13 19.8 67.6 40 6.1 43 0
18:46 1021 30.15 851 25.13 19.6 67.3 40 5.7 42.2 0
18:47 1021 30.15 851 25.13 19.5 67.2 41 6 42.7 0
18:48 1021 30.15 851 25.13 19.4 67 40 5.8 42.4 0
18:49 1021 30.15 851 25.13 19.4 66.9 40 5.5 41.9 0
18:50 1021 30.15 851 25.13 19.5 67 41 5.9 42.6 0
18:51 1021 30.15 851 25.13 19.4 67 39 5.1 41.3 0
18:52 1021 30.15 851 25.13 19.5 67 38 5 41 0
18:53 1021 30.15 851 25.13 19.5 67 35 3.6 38.5 0
18:54 1021 30.15 851 25.13 19.6 67.2 34 3.6 38.4 0
18:55 1021 30.15 851 25.13 19.6 67.3 35 3.9 39 0
18:56 1021 30.15 851 25.13 19.6 67.2 37 4.5 40.1 0
18:57 1021 30.15 851 25.13 19.3 66.8 39 5 41 0
18:58 1021 30.15 851 25.13 18.9 66.1 39 4.9 40.8 0
18:59 1021 30.15 851 25.13 18.6 65.6 39 4.4 40 0
19:00 1021 30.15 851 25.13 18.5 65.3 39 4.4 39.9 0
19:01 1021 30.15 851 25.13 18.3 65 39 4.3 39.7 0
19:02 1021 30.15 851 25.13 18.3 64.9 41 4.8 40.6 0
19:03 1021 30.15 851 25.13 18 64.5 41 4.9 40.8 0
19:04 1021 30.15 850 25.1 17.9 64.2 41 4.6 40.3 0
19:05 1021 30.15 850 25.1 17.8 64 40 4.1 39.4 0
19:06 1021 30.15 850 25.1 17.7 63.8 41 4.2 39.6 0
19:07 1021 30.15 850 25.1 17.6 63.7 41 4.4 39.9 0
19:08 1021 30.15 850 25.1 17.4 63.3 42 4.6 40.3 0
19:09 1021 30.15 850 25.1 17.2 62.9 43 4.7 40.5 0
19:10 1021 30.15 850 25.1 16.9 62.5 43 4.4 40 0
19:11 1021 30.15 851 25.13 16.8 62.2 44 4.6 40.3 0
19:12 1021 30.15 851 25.13 16.6 61.9 46 5.2 41.3 0
19:13 1021 30.15 851 25.13 16.3 61.4 48 5.3 41.6 0
19:14 1021 30.15 851 25.13 16.1 60.9 49 5.4 41.6 0
19:15 1021 30.15 851 25.13 15.8 60.4 51 5.7 42.3 0
19:16 1021 30.15 851 25.13 15.5 59.8 51 5.6 42.1 0
19:17 1021 30.15 851 25.13 15.3 59.5 52 5.5 41.9 0
19:18 1021 30.15 851 25.13 15.1 59.2 53 5.6 42 0
19:19 1021 30.15 851 25.13 15 58.9 53 5.5 41.9 0
19:20 1021 30.15 851 25.13 14.8 58.6 54 5.6 42.1 0
19:21 1021 30.15 851 25.13 14.5 58.2 55 5.7 42.2 0
19:22 1021 30.15 851 25.13 14.3 57.7 55 5.6 42 0
19:23 1021 30.15 850 25.1 14.1 57.3 55 5.4 41.6 0
19:24 1021 30.15 850 25.1 13.9 57 56 5.3 41.5 0
19:25 1021 30.15 850 25.1 13.8 56.8 56 5.2 41.4 0
19:26 1021 30.15 850 25.1 13.6 56.6 57 5.2 41.4 0
19:27 1021 30.15 850 25.1 13.5 56.2 57 5.2 41.4 0
19:28 1021 30.15 850 25.1 13.3 55.9 58 5.3 41.5 0
19:29 1021 30.15 850 25.1 13.1 55.5 59 5.4 41.7 0
19:30 1021 30.15 850 25.1 12.9 55.2 59 5.2 41.4 0
19:31 1021 30.15 850 25.1 12.8 55 58 4.8 40.7 0
19:32 1021 30.15 850 25.1 12.8 55 57 4.7 40.4 0
19:33 1021 30.15 850 25.1 12.8 55.1 56 4.4 40 0
19:34 1021 30.15 850 25.1 12.8 55.1 56 4.4 39.9 0
19:35 1021 30.15 851 25.13 12.8 55.1 54 3.8 38.8 0
19:36 1021 30.15 850 25.1 13 55.3 52 3.4 38.1 0
19:37 1021 30.15 850 25.1 13 55.5 57 4.8 40.7 0
19:38 1021 30.15 850 25.1 12.5 54.6 59 4.8 40.7 0
19:39 1021 30.15 851 25.13 12.1 53.8 58 4.3 39.7 0
19:40 1021 30.15 851 25.13 12 53.7 59 4.3 39.8 0
19:41 1021 30.15 851 25.13 11.8 53.3 59 4.2 39.6 0
19:42 1021 30.15 851 25.13 11.6 52.9 60 4.2 39.5 0
19:43 1021 30.15 851 25.13 11.4 52.5 60 4 39.2 0
19:44 1021 30.15 851 25.13 11.2 52.1 61 4 39.2 0
19:45 1021 30.15 851 25.13 10.9 51.6 61 3.8 38.8 0
19:46 1021 30.15 851 25.13 10.8 51.4 61 3.5 38.4 0
19:47 1021 30.15 851 25.13 10.8 51.4 60 3.3 38 0
19:48 1021 30.15 851 25.13 10.8 51.4 60 3.4 38 0
19:49 1021 30.15 851 25.13 10.7 51.3 59 3.2 37.8 0
19:50 1021 30.15 851 25.13 10.7 51.3 59 3 37.4 0
19:51 1021 30.15 850 25.1 10.8 51.4 57 2.6 36.7 0
19:52 1021 30.15 851 25.13 11 51.8 56 2.6 36.7 0
19:53 1021 30.15 851 25.13 11.3 52.3 55 2.7 36.9 0
19:54 1021 30.15 850 25.1 11.3 52.4 55 2.7 36.9 0
19:55 1021 30.15 851 25.13 11.3 52.3 56 2.8 37 0
19:56 1021 30.15 851 25.13 11.3 52.3 56 2.8 37.1 0
19:57 1021 30.15 851 25.13 11.3 52.3 56 2.9 37.2 0
19:58 1021 30.15 851 25.13 11.4 52.4 56 2.9 37.2 0
19:59 1021 30.15 851 25.13 11.3 52.4 57 3.1 37.5 0
20:00 1021 30.15 850 25.1 11.1 52.1 58 3.1 37.6 0
20:01 1021 30.15 851 25.13 11 51.9 57 3 37.4 0
20:02 1021 30.15 851 25.13 11 51.8 57 2.9 37.3 0
20:03 1021 30.15 851 25.13 11 51.7 56 2.7 36.8 0
20:04 1021 30.15 851 25.13 11.1 52 55 2.4 36.3 0
20:05 1021 30.15 851 25.13 11.3 52.4 55 2.6 36.6 0
20:06 1021 30.15 851 25.13 11.4 52.5 54 2.5 36.4 0
20:07 1021 30.15 851 25.13 11.4 52.5 55 2.8 37 0
20:08 1021 30.15 851 25.13 11.2 52.1 56 2.9 37.2 0
20:09 1021 30.15 851 25.13 10.9 51.7 56 2.5 36.4 0
20:10 1021 30.15 851 25.13 10.9 51.7 55 2.2 35.9 0
20:11 1021 30.15 851 25.13 11.1 52.1 52 1.8 35.2 0
20:12 1021 30.15 851 25.13 11.5 52.6 51 1.7 35.1 0
20:13 1021 30.15 851 25.13 11.6 52.9 54 2.6 36.8 0
20:14 1021 30.15 851 25.13 11.4 52.6 53 2.3 36.1 0
20:15 1021 30.15 851 25.13 11.3 52.4 52 1.8 35.3 0
20:16 1021 30.15 851 25.13 11.4 52.5 51 1.6 35 0
20:17 1021 30.15 851 25.13 11.5 52.6 49 1.3 34.3 0
20:18 1022 30.18 851 25.13 11.5 52.7 50 1.5 34.7 0
20:19 1022 30.18 851 25.13 11.6 52.8 50 1.6 34.9 0
20:20 1022 30.18 851 25.13 11.7 53 50 1.8 35.2 0
20:21 1022 30.18 851 25.13 11.7 53 51 1.9 35.4 0
20:22 1022 30.18 851 25.13 11.6 52.8 52 2.2 36 0
20:23 1022 30.18 851 25.13 11.4 52.5 53 2.2 36 0
20:24 1022 30.18 851 25.13 11.3 52.4 54 2.4 36.4 0
20:25 1022 30.18 851 25.13 11.3 52.4 55 2.6 36.6 0
20:26 1022 30.18 851 25.13 11.3 52.4 55 2.7 36.8 0
20:27 1022 30.18 851 25.13 11.4 52.5 55 2.6 36.8 0
20:28 1022 30.18 851 25.13 11.5 52.7 55 2.8 37 0
20:29 1022 30.18 851 25.13 11.6 52.9 55 2.8 37.1 0
20:30 1022 30.18 851 25.13 11.6 52.9 54 2.8 37 0
20:31 1022 30.18 851 25.13 11.8 53.2 53 2.7 36.8 0
20:32 1022 30.18 851 25.13 11.9 53.4 53 2.6 36.6 0
20:33 1022 30.18 851 25.13 12.1 53.8 50 2.2 35.9 0
20:34 1022 30.18 851 25.13 12.5 54.5 49 2.1 35.8 0
20:35 1022 30.18 851 25.13 12.8 55.1 47 1.8 35.3 0
20:36 1022 30.18 851 25.13 13.2 55.8 46 1.8 35.2 0
20:37 1022 30.18 851 25.13 13.5 56.3 43 1.4 34.5 0
20:38 1022 30.18 851 25.13 14 57.2 42 1.5 34.7 0
20:39 1022 30.18 851 25.13 14.2 57.6 42 1.7 35 0
20:40 1022 30.18 851 25.13 14.4 57.9 41 1.3 34.4 0
20:41 1022 30.18 851 25.13 14.6 58.3 40 1.2 34.1 0
20:42 1022 30.18 851 25.13 14.8 58.7 40 1.4 34.5 0
20:43 1022 30.18 851 25.13 14.9 58.8 39 1.3 34.3 0
20:44 1022 30.18 851 25.13 15 59 39 1.2 34.2 0
20:45 1022 30.18 851 25.13 15.2 59.3 38 1.1 33.9 0
20:46 1022 30.18 851 25.13 15.3 59.6 38 1.2 34.1 0
20:47 1022 30.18 851 25.13 15.3 59.6 39 1.4 34.5 0
20:48 1022 30.18 851 25.13 15.2 59.3 40 1.6 34.9 0
20:49 1022 30.18 851 25.13 15 59 41 1.8 35.3 0
20:50 1022 30.18 851 25.13 14.7 58.5 41 1.8 35.3 0
20:51 1022 30.18 851 25.13 14.5 58.1 43 2 35.6 0
20:52 1022 30.18 851 25.13 14.2 57.6 43 2 35.6 0
20:53 1022 30.18 851 25.13 14 57.2 44 2 35.5 0
20:54 1022 30.18 851 25.13 13.8 56.9 45 2.1 35.7 0
20:55 1022 30.18 851 25.13 13.6 56.5 46 2.3 36.1 0
20:56 1022 30.18 851 25.13 13.4 56.1 47 2.3 36.1 0
20:57 1022 30.18 851 25.13 13.2 55.7 47 2.2 35.9 0
20:58 1022 30.18 851 25.13 13 55.5 47 2.1 35.9 0
20:59 1022 30.18 851 25.13 12.9 55.2 48 2.2 35.9 0
21:00 1022 30.18 851 25.13 12.8 55 48 2 35.6 0
21:01 1022 30.18 851 25.13 12.8 55 48 2.1 35.8 0
21:02 1022 30.18 851 25.13 12.7 54.9 47 1.7 35 0
21:03 1022 30.18 851 25.13 12.9 55.2 46 1.7 35.1 0
21:04 1022 30.18 851 25.13 12.9 55.3 46 1.6 34.9 0
21:05 1022 30.18 851 25.13 13 55.3 47 2 35.5 0
21:06 1022 30.18 851 25.13 12.8 55.1 47 1.8 35.3 0
21:07 1022 30.18 851 25.13 12.7 54.9 47 1.8 35.3 0
21:08 1022 30.18 851 25.13 12.6 54.7 48 1.8 35.3 0
21:09 1022 30.18 851 25.13 12.6 54.6 47 1.8 35.2 0
21:10 1022 30.18 851 25.13 12.6 54.7 47 1.6 34.9 0
21:11 1022 30.18 851 25.13 12.8 55 47 1.8 35.2 0
21:12 1022 30.18 851 25.13 12.8 55 48 2 35.6 0
21:13 1022 30.18 851 25.13 12.7 54.9 48 2 35.7 0
21:14 1022 30.18 851 25.13 12.6 54.7 48 2 35.6 0
21:15 1022 30.18 851 25.13 12.6 54.8 48 2 35.6 0
21:16 1022 30.18 851 25.13 12.6 54.7 48 2 35.5 0
21:17 1022 30.18 851 25.13 12.6 54.7 47 1.7 35.1 0
21:18 1022 30.18 851 25.13 12.7 54.9 47 1.7 35.1 0
21:19 1022 30.18 851 25.13 12.9 55.3 47 1.9 35.4 0
21:20 1022 30.18 851 25.13 13 55.4 47 1.9 35.4 0
21:21 1022 30.18 851 25.13 13 55.3 47 1.9 35.3 0
21:22 1022 30.18 851 25.13 13 55.3 47 2 35.6 0
21:23 1022 30.18 851 25.13 12.9 55.2 46 1.6 34.9 0
21:24 1022 30.18 851 25.13 13 55.5 45 1.5 34.7 0
21:25 1022 30.18 851 25.13 13.2 55.7 46 1.7 35.1 0
21:26 1022 30.18 851 25.13 13.1 55.6 46 1.9 35.4 0
21:27 1022 30.18 851 25.13 13.1 55.5 47 1.9 35.5 0
21:28 1022 30.18 851 25.13 12.9 55.3 47 2 35.6 0
21:29 1022 30.18 851 25.13 12.8 55 48 2 35.6 0
21:30 1022 30.18 851 25.13 12.6 54.6 49 2.1 35.8 0
21:31 1022 30.18 851 25.13 12.4 54.3 50 2.2 36 0
21:32 1022 30.18 851 25.13 12.2 53.9 51 2.4 36.3 0
21:33 1022 30.18 851 25.13 11.8 53.3 52 2.4 36.3 0
21:34 1022 30.18 851 25.13 11.4 52.5 56 2.9 37.2 0
21:35 1022 30.18 851 25.13 10.8 51.4 58 2.8 37 0
21:36 1022 30.18 851 25.13 10.3 50.5 61 3.1 37.5 0
21:37 1022 30.18 851 25.13 9.8 49.6 63 3.2 37.7 0
21:38 1022 30.18 851 25.13 9.4 48.9 65 3.1 37.6 0
21:39 1022 30.18 851 25.13 9.2 48.5 64 2.6 36.7 0
21:40 1022 30.18 851 25.13 9.2 48.5 62 2.3 36.2 0
21:41 1022 30.18 851 25.13 9.3 48.7 60 1.9 35.5 0
21:42 1022 30.18 851 25.13 9.6 49.2 58 1.6 34.9 0
21:43 1022 30.18 851 25.13 9.9 49.8 56 1.5 34.7 0
21:44 1022 30.18 851 25.13 10.2 50.4 54 1.5 34.7 0
21:45 1022 30.18 851 25.13 10.6 51 53 1.3 34.4 0
21:46 1022 30.18 851 25.13 10.8 51.5 53 1.6 34.8 0
21:47 1022 30.18 851 25.13 10.8 51.4 53 1.7 35 0
21:48 1022 30.18 851 25.13 10.7 51.2 54 1.8 35.3 0
21:49 1022 30.18 851 25.13 10.5 50.8 55 1.9 35.5 0
21:50 1022 30.18 851 25.13 10.2 50.4 56 2 35.6 0
21:51 1022 30.18 851 25.13 10 50 57 1.9 35.5 0
21:52 1022 30.18 851 25.13 9.9 49.8 57 1.8 35.3 0
21:53 1022 30.18 851 25.13 9.8 49.7 57 1.7 35.1 0
21:54 1022 30.18 851 25.13 9.7 49.5 57 1.8 35.2 0
21:55 1022 30.18 851 25.13 9.6 49.3 59 2.1 35.8 0
21:56 1022 30.18 851 25.13 9.4 48.9 57 1.3 34.4 0
21:57 1022 30.18 851 25.13 9.7 49.4 58 1.8 35.3 0
21:58 1022 30.18 851 25.13 9.7 49.5 59 2.2 36 0
21:59 1022 30.18 851 25.13 9.6 49.2 59 2.1 35.7 0
22:00 1022 30.18 851 25.13 9.6 49.2 59 1.9 35.4 0
22:01 1022 30.18 851 25.13 9.6 49.2 58 1.7 35.1 0
22:02 1022 30.18 851 25.13 9.6 49.4 59 2 35.6 0
22:03 1022 30.18 851 25.13 9.4 49 58 1.7 35.1 0
22:04 1022 30.18 851 25.13 9.4 49 59 1.9 35.4 0
22:05 1022 30.18 851 25.13 9.3 48.7 60 1.9 35.5 0
22:06 1022 30.18 851 25.13 9.2 48.6 58 1.5 34.7 0
22:07 1022 30.18 851 25.13 9.3 48.7 60 1.9 35.4 0
22:08 1022 30.18 851 25.13 8.9 47.9 62 2.1 35.8 0
22:09 1022 30.18 851 25.13 8.4 47.1 62 1.7 35 0
22:10 1022 30.18 851 25.13 8.6 47.5 61 1.5 34.8 0
22:11 1022 30.18 851 25.13 8.7 47.7 62 1.9 35.4 0
22:12 1022 30.18 851 25.13 8.4 47 64 1.9 35.5 0
22:13 1022 30.18 851 25.13 8 46.5 64 1.8 35.2 0
22:14 1022 30.18 851 25.13 8 46.3 65 1.8 35.3 0
22:15 1022 30.18 851 25.13 7.8 46 65 1.7 35.1 0
22:16 1022 30.18 851 25.13 7.8 46 65 1.7 35.1 0
22:17 1022 30.18 851 25.13 7.7 45.8 67 2 35.6 0
22:18 1022 30.18 851 25.13 7.6 45.7 65 1.6 34.8 0
22:19 1022 30.18 851 25.13 7.9 46.1 63 1.2 34.2 0
22:20 1022 30.18 851 25.13 8.2 46.8 61 1.2 34.2 0
22:21 1022 30.18 851 25.13 8.5 47.3 61 1.3 34.4 0
22:22 1022 30.18 851 25.13 8.5 47.4 61 1.5 34.7 0
22:23 1022 30.18 851 25.13 8.5 47.3 61 1.5 34.8 0
22:24 1022 30.18 851 25.13 8.4 47.1 62 1.6 34.8 0
22:25 1022 30.18 851 25.13 8.3 47 63 1.6 35 0
22:26 1022 30.18 851 25.13 8.2 46.7 63 1.6 34.9 0
22:27 1022 30.18 851 25.13 8 46.3 64 1.5 34.8 0
22:28 1022 30.18 851 25.13 7.8 46.1 64 1.6 34.8 0
22:29 1022 30.18 851 25.13 7.7 45.9 65 1.6 34.8 0
22:30 1022 30.18 851 25.13 7.6 45.6 66 1.7 35 0
22:31 1022 30.18 851 25.13 7.4 45.3 67 1.6 34.9 0
22:32 1022 30.18 851 25.13 7.3 45.2 67 1.7 35 0
22:33 1022 30.18 851 25.13 7.3 45.1 67 1.6 34.8 0
22:34 1022 30.18 851 25.13 7.4 45.3 67 1.7 35.1 0
22:35 1022 30.18 851 25.13 7.3 45.2 67 1.6 34.9 0
22:36 1022 30.18 851 25.13 7.4 45.4 66 1.5 34.7 0
22:37 1022 30.18 851 25.13 7.7 45.9 64 1.4 34.5 0
22:38 1022 30.18 851 25.13 8.1 46.6 63 1.5 34.7 0
22:39 1022 30.18 851 25.13 8.4 47.1 62 1.6 34.9 0
22:40 1022 30.18 851 25.13 8.5 47.2 62 1.7 35.1 0
22:41 1022 30.18 851 25.13 8.6 47.4 62 1.8 35.2 0
22:42 1022 30.18 851 25.13 8.6 47.5 62 1.7 35.1 0
22:43 1022 30.18 851 25.13 8.7 47.7 61 1.6 34.8 0
22:44 1022 30.18 851 25.13 8.8 47.8 61 1.6 34.9 0
22:45 1022 30.18 851 25.13 8.8 47.9 60 1.6 34.9 0
22:46 1022 30.18 851 25.13 8.9 48 60 1.7 35 0
22:47 1022 30.18 851 25.13 8.9 47.9 61 1.8 35.3 0
22:48 1022 30.18 851 25.13 8.7 47.6 62 1.9 35.4 0
22:49 1022 30.18 851 25.13 8.5 47.4 62 1.8 35.2 0
22:50 1022 30.18 851 25.13 8.5 47.3 61 1.5 34.8 0
22:51 1022 30.18 851 25.13 8.6 47.6 60 1.3 34.4 0
22:52 1022 30.18 851 25.13 8.9 48.1 59 1.4 34.5 0
22:53 1022 30.18 851 25.13 9.1 48.4 58 1.4 34.5 0
22:54 1022 30.18 851 25.13 9.3 48.8 56 1.1 33.9 0
22:55 1022 30.18 851 25.13 9.6 49.2 55 1.1 34 0
22:56 1022 30.18 851 25.13 9.7 49.5 55 1.3 34.3 0
22:57 1022 30.18 851 25.13 9.7 49.5 56 1.3 34.3 0
22:58 1022 30.18 851 25.13 9.7 49.4 56 1.3 34.3 0
22:59 1022 30.18 851 25.13 9.6 49.3 56 1.4 34.4 0
23:00 1022 30.18 851 25.13 9.5 49.1 56 1.1 34 0
23:01 1022 30.18 851 25.13 9.6 49.4 53 0.7 33.2 0
23:02 1022 30.18 851 25.13 9.9 49.7 52 0.6 33.1 0
23:03 1022 30.18 851 25.13 10 50 51 0.5 32.9 0
23:04 1022 30.18 851 25.13 10.2 50.3 51 0.6 33.1 0
23:05 1022 30.18 851 25.13 10.2 50.3 52 0.9 33.6 0
23:06 1022 30.18 851 25.13 10 50.1 52 0.8 33.4 0
23:07 1022 30.18 851 25.13 9.9 49.8 52 0.6 33 0
23:08 1022 30.18 851 25.13 9.9 49.8 51 0.4 32.7 0
23:09 1022 30.18 851 25.13 10 50 50 0.2 32.4 0
23:10 1022 30.18 851 25.13 10.2 50.3 50 0.3 32.5 0
23:11 1022 30.18 851 25.13 10.2 50.4 50 0.4 32.6 0
23:12 1022 30.18 851 25.13 10.2 50.4 50 0.3 32.5 0
23:13 1022 30.18 851 25.13 10.2 50.4 50 0.3 32.6 0
23:14 1022 30.18 851 25.13 10.1 50.1 51 0.4 32.6 0
23:15 1022 30.18 851 25.13 10 49.9 51 0.5 32.9 0
23:16 1022 30.18 851 25.13 9.9 49.8 51 0.2 32.3 0
23:17 1022 30.18 851 25.13 9.8 49.7 52 0.4 32.7 0
23:18 1022 30.18 851 25.13 9.6 49.4 52 0.3 32.5 0
23:19 1022 30.18 851 25.13 9.5 49.1 53 0.3 32.6 0
23:20 1022 30.18 851 25.13 9.4 48.9 53 0.3 32.6 0
23:21 1022 30.18 851 25.13 9.3 48.7 54 0.3 32.6 0
23:22 1022 30.18 851 25.13 9.1 48.4 54 0.5 32.8 0
23:23 1022 30.18 851 25.13 8.9 48 56 0.5 32.9 0
23:24 1022 30.18 851 25.13 8.7 47.6 57 0.6 33.1 0
23:25 1022 30.18 851 25.13 8.5 47.3 57 0.6 33 0
23:26 1022 30.18 851 25.13 8.5 47.2 58 0.7 33.3 0
23:27 1022 30.18 851 25.13 8.4 47.1 59 0.7 33.3 0
23:28 1022 30.18 851 25.13 8.3 46.9 60 1.1 33.9 0
23:29 1022 30.18 851 25.13 8.1 46.5 62 1.2 34.1 0
23:30 1022 30.18 851 25.13 7.9 46.3 63 1.3 34.3 0
23:31 1022 30.18 851 25.13 7.8 46.1 62 1.1 33.9 0
23:32 1022 30.18 851 25.13 7.9 46.3 62 1.1 33.9 0
23:33 1022 30.18 851 25.13 8.1 46.5 61 0.9 33.7 0
23:34 1022 30.18 851 25.13 8.2 46.7 60 0.8 33.5 0
23:35 1022 30.18 851 25.13 8.3 47 59 0.8 33.5 0
23:36 1022 30.18 851 25.13 8.3 47 59 0.9 33.7 0
23:37 1022 30.18 851 25.13 8.3 46.9 60 1 33.7 0
23:38 1022 30.18 851 25.13 8.2 46.8 60 1 33.8 0
23:39 1022 30.18 851 25.13 8.1 46.7 61 1 33.8 0
23:40 1022 30.18 851 25.13 8 46.4 62 1.2 34.1 0
23:41 1022 30.18 851 25.13 7.7 45.9 64 1.4 34.5 0
23:42 1022 30.18 851 25.13 7.5 45.6 66 1.7 35.1 0
23:43 1022 30.18 851 25.13 7.7 45.9 65 1.5 34.7 0
23:44 1022 30.18 851 25.13 8 46.3 63 1.3 34.4 0
23:45 1022 30.18 851 25.13 8.1 46.5 62 1.4 34.5 0
23:46 1022 30.18 851 25.13 8 46.4 63 1.4 34.4 0
23:47 1022 30.18 851 25.13 7.8 46 63 1.3 34.3 0
23:48 1022 30.18 851 25.13 7.5 45.4 65 1.3 34.3 0
23:49 1022 30.18 851 25.13 7.2 45 65 1.2 34.1 0
23:50 1022 30.18 851 25.13 7.2 44.9 65 1.1 34 0
23:51 1022 30.18 851 25.13 7.2 45 65 1.2 34.1 0
23:52 1022 30.18 851 25.13 7.2 45 65 1.2 34.1 0
23:53 1022 30.18 851 25.13 7.2 44.9 65 1.1 34.1 0
23:54 1022 30.18 851 25.13 7.2 45 67 1.6 34.9 0
23:55 1022 30.18 851 25.13 7.1 44.7 69 1.8 35.2 0
23:56 1022 30.18 851 25.13 7.2 44.9 68 1.7 35.1 0
23:57 1022 30.18 851 25.13 7.3 45.2 67 1.7 35 0
23:58 1022 30.18 851 25.13 7.5 45.4 66 1.6 34.9 0
23:59 1022 30.18 851 25.13 7.6 45.7 65 1.5 34.8 0
24:00 1022 30.18 851 25.13 7.7 45.8 64 1.4 34.6 0